Missouri River (Missouri), Boonville (06909000)

StateMissouriLatestUnknown (37800 cfs)
RiverMissouri RiverRatingObservedEstimated
Updated2021-01-19 23:30 (1 hour ago)Flood - The river is flooding. Obstacles can be treacherous or deadly. The river should be avoided at this stage for casual trips and definitely for the inexperienced. Trips should be attempted only with protective gear and equipment.Flood(none)(none)
Discharge37800 cfs (median: 32800 cfs)High - The river is high and potentially dangerous, especially for the young and / or inexperienced. Normal stream obstacles are sometimes difficult to navigate. Extended distances can be attempted, but canoe travel may not be advisable.High(none)(none)
Height5.66 feetGood - Conditions are ideal for a canoe or kayak. Boats typically will drag on fewer than one-quarter of riffles, if at all, and portages are unnecessary or rare. Normal float lengths can be attempted without a problem.Good(none)(none)
TrendSteady (steady over 24 hours)Low - River is low but can still be floated. Some riffles are okay but most come with significant dragging and might need a portage. Float lengths should be reduced to accommodate low flow, dragging, and portages.Low(none)(none)
USGSExternal icon USGS Site (External icon Google Maps)Poor - River is too low to float comfortably. Most or all riffles will drag or must be portaged and some obstacles (such as slick shelf rock) cause undue problems. Avoid the river at this stage for casual paddling trips.Poor(none)(none)

Trending Data

Plot Image

Trips for Missouri River (Missouri), Boonville (06909000)

DateStartEndDistanceConditionDischargeHeightFishingDetails

A total of 0 rows are displayed.

Condition Descriptions

Fishing Conditions

Fish Species

Notes

Classic Trip List

The classic River Trips application is still available for use. It is updated with the new system using a data retrofit. It is no longer maintained. The original River Trips application is no longer updated (as of 1 Dec 2016) but can be checked for errors or for the condition of the data before it was converted to the new system.

Gauge Data Table

ObservationHeightDischargeMaximum
Discharge
Minimum
Discharge
Mean
Discharge
P05P10P20P25P50
(Median)
P75P80P90P95
2021-01-19 23:30 5.66 37800 181000 (1973) 7000 (1963) 38800 14400 17600 22300 24000 33900 43000 49300 65200 88500
2021-01-19 22:30 5.66 37800 181000 (1973) 7000 (1963) 38800 14400 17600 22300 24000 33900 43000 49300 65200 88500
2021-01-19 21:30 5.67 37800 181000 (1973) 7000 (1963) 38800 14400 17600 22300 24000 33900 43000 49300 65200 88500
2021-01-19 20:30 5.66 37800 181000 (1973) 7000 (1963) 38800 14400 17600 22300 24000 33900 43000 49300 65200 88500
2021-01-19 19:30 5.66 37800 181000 (1973) 7000 (1963) 38800 14400 17600 22300 24000 33900 43000 49300 65200 88500
2021-01-19 18:30 5.65 37800 181000 (1973) 7000 (1963) 38800 14400 17600 22300 24000 33900 43000 49300 65200 88500
2021-01-19 17:30 5.65 37800 181000 (1973) 7000 (1963) 38800 14400 17600 22300 24000 33900 43000 49300 65200 88500
2021-01-19 16:30 5.59 37500 181000 (1973) 7000 (1963) 38800 14400 17600 22300 24000 33900 43000 49300 65200 88500
2021-01-19 15:30 5.56 37300 181000 (1973) 7000 (1963) 38800 14400 17600 22300 24000 33900 43000 49300 65200 88500
2021-01-19 14:30 5.47 36900 181000 (1973) 7000 (1963) 38800 14400 17600 22300 24000 33900 43000 49300 65200 88500
2021-01-19 13:30 5.50 37100 181000 (1973) 7000 (1963) 38800 14400 17600 22300 24000 33900 43000 49300 65200 88500
2021-01-19 12:30 5.57 37400 181000 (1973) 7000 (1963) 38800 14400 17600 22300 24000 33900 43000 49300 65200 88500
2021-01-19 11:30 5.59 37500 181000 (1973) 7000 (1963) 38800 14400 17600 22300 24000 33900 43000 49300 65200 88500
2021-01-19 10:30 5.66 37800 181000 (1973) 7000 (1963) 38800 14400 17600 22300 24000 33900 43000 49300 65200 88500
2021-01-19 09:30 5.61 37600 181000 (1973) 7000 (1963) 38800 14400 17600 22300 24000 33900 43000 49300 65200 88500
2021-01-19 08:30 5.67 37800 181000 (1973) 7000 (1963) 38800 14400 17600 22300 24000 33900 43000 49300 65200 88500
2021-01-19 07:30 5.67 37800 181000 (1973) 7000 (1963) 38800 14400 17600 22300 24000 33900 43000 49300 65200 88500
2021-01-19 05:30 5.67 37800 181000 (1973) 7000 (1963) 38800 14400 17600 22300 24000 33900 43000 49300 65200 88500
2021-01-19 04:30 5.67 37800 181000 (1973) 7000 (1963) 38800 14400 17600 22300 24000 33900 43000 49300 65200 88500
2021-01-19 03:30 5.67 37800 181000 (1973) 7000 (1963) 38800 14400 17600 22300 24000 33900 43000 49300 65200 88500
2021-01-19 02:30 5.66 37800 181000 (1973) 7000 (1963) 38800 14400 17600 22300 24000 33900 43000 49300 65200 88500
2021-01-19 01:30 5.67 37800 181000 (1973) 7000 (1963) 38800 14400 17600 22300 24000 33900 43000 49300 65200 88500
2021-01-19 00:30 5.66 37800 181000 (1973) 7000 (1963) 38800 14400 17600 22300 24000 33900 43000 49300 65200 88500
2021-01-18 23:30 5.66 37800 97000 (1973) 8000 (1963) 36800 13900 17100 22200 25000 33000 42100 48200 56300 90000
2021-01-18 22:30 5.66 37800 97000 (1973) 8000 (1963) 36800 13900 17100 22200 25000 33000 42100 48200 56300 90000
2021-01-18 21:30 5.66 37800 97000 (1973) 8000 (1963) 36800 13900 17100 22200 25000 33000 42100 48200 56300 90000
2021-01-18 20:30 5.66 37800 97000 (1973) 8000 (1963) 36800 13900 17100 22200 25000 33000 42100 48200 56300 90000
2021-01-18 19:30 5.67 37800 97000 (1973) 8000 (1963) 36800 13900 17100 22200 25000 33000 42100 48200 56300 90000
2021-01-18 18:30 5.59 37500 97000 (1973) 8000 (1963) 36800 13900 17100 22200 25000 33000 42100 48200 56300 90000
2021-01-18 17:30 5.64 37700 97000 (1973) 8000 (1963) 36800 13900 17100 22200 25000 33000 42100 48200 56300 90000
2021-01-18 16:30 5.57 37400 97000 (1973) 8000 (1963) 36800 13900 17100 22200 25000 33000 42100 48200 56300 90000
2021-01-18 15:30 5.56 37300 97000 (1973) 8000 (1963) 36800 13900 17100 22200 25000 33000 42100 48200 56300 90000
2021-01-18 14:30 5.47 36900 97000 (1973) 8000 (1963) 36800 13900 17100 22200 25000 33000 42100 48200 56300 90000
2021-01-18 13:30 5.56 37300 97000 (1973) 8000 (1963) 36800 13900 17100 22200 25000 33000 42100 48200 56300 90000
2021-01-18 12:30 5.62 37600 97000 (1973) 8000 (1963) 36800 13900 17100 22200 25000 33000 42100 48200 56300 90000
2021-01-18 11:30 5.57 37400 97000 (1973) 8000 (1963) 36800 13900 17100 22200 25000 33000 42100 48200 56300 90000
2021-01-18 10:30 5.59 37500 97000 (1973) 8000 (1963) 36800 13900 17100 22200 25000 33000 42100 48200 56300 90000
2021-01-18 09:30 5.66 37800 97000 (1973) 8000 (1963) 36800 13900 17100 22200 25000 33000 42100 48200 56300 90000
2021-01-18 08:30 5.66 37800 97000 (1973) 8000 (1963) 36800 13900 17100 22200 25000 33000 42100 48200 56300 90000
2021-01-18 07:30 5.65 37800 97000 (1973) 8000 (1963) 36800 13900 17100 22200 25000 33000 42100 48200 56300 90000
2021-01-18 06:30 5.66 37800 97000 (1973) 8000 (1963) 36800 13900 17100 22200 25000 33000 42100 48200 56300 90000
2021-01-18 05:30 5.66 37800 97000 (1973) 8000 (1963) 36800 13900 17100 22200 25000 33000 42100 48200 56300 90000
2021-01-18 04:30 5.65 37800 97000 (1973) 8000 (1963) 36800 13900 17100 22200 25000 33000 42100 48200 56300 90000
2021-01-18 03:30 5.65 37800 97000 (1973) 8000 (1963) 36800 13900 17100 22200 25000 33000 42100 48200 56300 90000
2021-01-18 02:30 5.66 37800 97000 (1973) 8000 (1963) 36800 13900 17100 22200 25000 33000 42100 48200 56300 90000
2021-01-18 01:30 5.66 37800 97000 (1973) 8000 (1963) 36800 13900 17100 22200 25000 33000 42100 48200 56300 90000
2021-01-18 00:30 5.67 37800 97000 (1973) 8000 (1963) 36800 13900 17100 22200 25000 33000 42100 48200 56300 90000
2021-01-17 23:30 5.66 37800 100000 (1960) 8000 (1963) 35900 12700 17400 22900 25300 32000 42500 44800 54700 77900
2021-01-17 22:30 5.66 37800 100000 (1960) 8000 (1963) 35900 12700 17400 22900 25300 32000 42500 44800 54700 77900
2021-01-17 21:30 5.66 37800 100000 (1960) 8000 (1963) 35900 12700 17400 22900 25300 32000 42500 44800 54700 77900
2021-01-17 20:30 5.66 37800 100000 (1960) 8000 (1963) 35900 12700 17400 22900 25300 32000 42500 44800 54700 77900
2021-01-17 19:30 5.66 37800 100000 (1960) 8000 (1963) 35900 12700 17400 22900 25300 32000 42500 44800 54700 77900
2021-01-17 18:30 5.64 37700 100000 (1960) 8000 (1963) 35900 12700 17400 22900 25300 32000 42500 44800 54700 77900
2021-01-17 17:30 5.65 37800 100000 (1960) 8000 (1963) 35900 12700 17400 22900 25300 32000 42500 44800 54700 77900
2021-01-17 16:30 5.66 37800 100000 (1960) 8000 (1963) 35900 12700 17400 22900 25300 32000 42500 44800 54700 77900
2021-01-17 15:30 5.66 37800 100000 (1960) 8000 (1963) 35900 12700 17400 22900 25300 32000 42500 44800 54700 77900
2021-01-17 14:30 5.66 37800 100000 (1960) 8000 (1963) 35900 12700 17400 22900 25300 32000 42500 44800 54700 77900
2021-01-17 13:30 5.66 37800 100000 (1960) 8000 (1963) 35900 12700 17400 22900 25300 32000 42500 44800 54700 77900
2021-01-17 12:30 5.66 37800 100000 (1960) 8000 (1963) 35900 12700 17400 22900 25300 32000 42500 44800 54700 77900
2021-01-17 11:30 5.65 37800 100000 (1960) 8000 (1963) 35900 12700 17400 22900 25300 32000 42500 44800 54700 77900
2021-01-17 10:30 5.64 37700 100000 (1960) 8000 (1963) 35900 12700 17400 22900 25300 32000 42500 44800 54700 77900
2021-01-17 09:30 5.63 37700 100000 (1960) 8000 (1963) 35900 12700 17400 22900 25300 32000 42500 44800 54700 77900
2021-01-17 08:30 5.64 37700 100000 (1960) 8000 (1963) 35900 12700 17400 22900 25300 32000 42500 44800 54700 77900
2021-01-17 07:30 5.64 37700 100000 (1960) 8000 (1963) 35900 12700 17400 22900 25300 32000 42500 44800 54700 77900
2021-01-17 06:30 5.63 37700 100000 (1960) 8000 (1963) 35900 12700 17400 22900 25300 32000 42500 44800 54700 77900
2021-01-17 05:30 5.63 37700 100000 (1960) 8000 (1963) 35900 12700 17400 22900 25300 32000 42500 44800 54700 77900
2021-01-17 04:30 5.63 37700 100000 (1960) 8000 (1963) 35900 12700 17400 22900 25300 32000 42500 44800 54700 77900
2021-01-17 03:30 5.63 37700 100000 (1960) 8000 (1963) 35900 12700 17400 22900 25300 32000 42500 44800 54700 77900
2021-01-17 02:30 5.62 37600 100000 (1960) 8000 (1963) 35900 12700 17400 22900 25300 32000 42500 44800 54700 77900
2021-01-17 01:30 5.62 37600 100000 (1960) 8000 (1963) 35900 12700 17400 22900 25300 32000 42500 44800 54700 77900
2021-01-16 22:30 5.61 37600 93600 (2020) 10000 (1963) 35800 13000 18900 23600 24500 31800 44400 45500 52600 79600
2021-01-16 21:30 5.62 37600 93600 (2020) 10000 (1963) 35800 13000 18900 23600 24500 31800 44400 45500 52600 79600
2021-01-16 20:30 5.61 37600 93600 (2020) 10000 (1963) 35800 13000 18900 23600 24500 31800 44400 45500 52600 79600
2021-01-16 19:30 5.62 37600 93600 (2020) 10000 (1963) 35800 13000 18900 23600 24500 31800 44400 45500 52600 79600
2021-01-16 18:30 5.61 37600 93600 (2020) 10000 (1963) 35800 13000 18900 23600 24500 31800 44400 45500 52600 79600
2021-01-16 17:30 5.61 37600 93600 (2020) 10000 (1963) 35800 13000 18900 23600 24500 31800 44400 45500 52600 79600
2021-01-16 16:30 5.60 37500 93600 (2020) 10000 (1963) 35800 13000 18900 23600 24500 31800 44400 45500 52600 79600
2021-01-16 15:30 5.61 37600 93600 (2020) 10000 (1963) 35800 13000 18900 23600 24500 31800 44400 45500 52600 79600
2021-01-16 14:30 5.54 37200 93600 (2020) 10000 (1963) 35800 13000 18900 23600 24500 31800 44400 45500 52600 79600
2021-01-16 13:30 5.58 37400 93600 (2020) 10000 (1963) 35800 13000 18900 23600 24500 31800 44400 45500 52600 79600
2021-01-16 12:30 5.51 37100 93600 (2020) 10000 (1963) 35800 13000 18900 23600 24500 31800 44400 45500 52600 79600
2021-01-16 11:30 5.58 37400 93600 (2020) 10000 (1963) 35800 13000 18900 23600 24500 31800 44400 45500 52600 79600
2021-01-16 10:30 5.55 37300 93600 (2020) 10000 (1963) 35800 13000 18900 23600 24500 31800 44400 45500 52600 79600
2021-01-16 09:30 5.48 37000 93600 (2020) 10000 (1963) 35800 13000 18900 23600 24500 31800 44400 45500 52600 79600
2021-01-16 08:30 5.57 37400 93600 (2020) 10000 (1963) 35800 13000 18900 23600 24500 31800 44400 45500 52600 79600
2021-01-16 07:30 5.57 37400 93600 (2020) 10000 (1963) 35800 13000 18900 23600 24500 31800 44400 45500 52600 79600
2021-01-16 06:30 5.56 37300 93600 (2020) 10000 (1963) 35800 13000 18900 23600 24500 31800 44400 45500 52600 79600
2021-01-16 05:30 5.54 37200 93600 (2020) 10000 (1963) 35800 13000 18900 23600 24500 31800 44400 45500 52600 79600
2021-01-16 04:30 5.52 37200 93600 (2020) 10000 (1963) 35800 13000 18900 23600 24500 31800 44400 45500 52600 79600
2021-01-16 03:30 5.57 37400 93600 (2020) 10000 (1963) 35800 13000 18900 23600 24500 31800 44400 45500 52600 79600
2021-01-16 02:30 5.57 37400 93600 (2020) 10000 (1963) 35800 13000 18900 23600 24500 31800 44400 45500 52600 79600
2021-01-16 01:30 5.53 37200 93600 (2020) 10000 (1963) 35800 13000 18900 23600 24500 31800 44400 45500 52600 79600
2021-01-16 00:30 5.50 37100 93600 (2020) 10000 (1963) 35800 13000 18900 23600 24500 31800 44400 45500 52600 79600
2021-01-15 23:30 5.55 37300 95300 (2020) 12300 (1967) 35400 13200 17900 21900 23400 30800 42500 46300 59200 81400
2021-01-15 22:30 5.51 37100 95300 (2020) 12300 (1967) 35400 13200 17900 21900 23400 30800 42500 46300 59200 81400
2021-01-15 21:30 5.57 37400 95300 (2020) 12300 (1967) 35400 13200 17900 21900 23400 30800 42500 46300 59200 81400
2021-01-15 20:30 5.56 37300 95300 (2020) 12300 (1967) 35400 13200 17900 21900 23400 30800 42500 46300 59200 81400
2021-01-15 19:30 5.56 37300 95300 (2020) 12300 (1967) 35400 13200 17900 21900 23400 30800 42500 46300 59200 81400
2021-01-15 18:30 5.57 37400 95300 (2020) 12300 (1967) 35400 13200 17900 21900 23400 30800 42500 46300 59200 81400
2021-01-15 17:30 5.57 37400 95300 (2020) 12300 (1967) 35400 13200 17900 21900 23400 30800 42500 46300 59200 81400
2021-01-15 16:30 5.56 37300 95300 (2020) 12300 (1967) 35400 13200 17900 21900 23400 30800 42500 46300 59200 81400
2021-01-15 15:30 5.38 36500 95300 (2020) 12300 (1967) 35400 13200 17900 21900 23400 30800 42500 46300 59200 81400
2021-01-15 14:30 5.40 36600 95300 (2020) 12300 (1967) 35400 13200 17900 21900 23400 30800 42500 46300 59200 81400
2021-01-15 13:30 5.40 36600 95300 (2020) 12300 (1967) 35400 13200 17900 21900 23400 30800 42500 46300 59200 81400
2021-01-15 12:30 5.33 36300 95300 (2020) 12300 (1967) 35400 13200 17900 21900 23400 30800 42500 46300 59200 81400
2021-01-15 11:30 5.35 36400 95300 (2020) 12300 (1967) 35400 13200 17900 21900 23400 30800 42500 46300 59200 81400
2021-01-15 10:30 5.29 36100 95300 (2020) 12300 (1967) 35400 13200 17900 21900 23400 30800 42500 46300 59200 81400
2021-01-15 09:30 5.32 36300 95300 (2020) 12300 (1967) 35400 13200 17900 21900 23400 30800 42500 46300 59200 81400
2021-01-15 08:30 5.36 36400 95300 (2020) 12300 (1967) 35400 13200 17900 21900 23400 30800 42500 46300 59200 81400
2021-01-15 07:30 5.34 36300 95300 (2020) 12300 (1967) 35400 13200 17900 21900 23400 30800 42500 46300 59200 81400
2021-01-15 06:30 5.38 36500 95300 (2020) 12300 (1967) 35400 13200 17900 21900 23400 30800 42500 46300 59200 81400
2021-01-15 05:30 5.37 36500 95300 (2020) 12300 (1967) 35400 13200 17900 21900 23400 30800 42500 46300 59200 81400
2021-01-15 04:30 5.41 36700 95300 (2020) 12300 (1967) 35400 13200 17900 21900 23400 30800 42500 46300 59200 81400
2021-01-15 03:30 5.43 36700 95300 (2020) 12300 (1967) 35400 13200 17900 21900 23400 30800 42500 46300 59200 81400
2021-01-15 02:30 5.40 36600 95300 (2020) 12300 (1967) 35400 13200 17900 21900 23400 30800 42500 46300 59200 81400
2021-01-15 01:30 5.39 36600 95300 (2020) 12300 (1967) 35400 13200 17900 21900 23400 30800 42500 46300 59200 81400
2021-01-15 00:30 5.48 37000 95300 (2020) 12300 (1967) 35400 13200 17900 21900 23400 30800 42500 46300 59200 81400
2021-01-14 23:30 5.42 36700 101000 (2020) 12500 (1967) 35100 13400 15000 22400 23700 30800 41600 46700 57200 78900
2021-01-14 22:30 5.46 36900 101000 (2020) 12500 (1967) 35100 13400 15000 22400 23700 30800 41600 46700 57200 78900
2021-01-14 21:30 5.43 36700 101000 (2020) 12500 (1967) 35100 13400 15000 22400 23700 30800 41600 46700 57200 78900
2021-01-14 20:30 5.50 37100 101000 (2020) 12500 (1967) 35100 13400 15000 22400 23700 30800 41600 46700 57200 78900
2021-01-14 19:30 5.50 37100 101000 (2020) 12500 (1967) 35100 13400 15000 22400 23700 30800 41600 46700 57200 78900
2021-01-14 18:30 5.49 37000 101000 (2020) 12500 (1967) 35100 13400 15000 22400 23700 30800 41600 46700 57200 78900
2021-01-14 16:30 5.48 37000 101000 (2020) 12500 (1967) 35100 13400 15000 22400 23700 30800 41600 46700 57200 78900
2021-01-14 15:30 5.32 36300 101000 (2020) 12500 (1967) 35100 13400 15000 22400 23700 30800 41600 46700 57200 78900
2021-01-14 14:30 5.33 36300 101000 (2020) 12500 (1967) 35100 13400 15000 22400 23700 30800 41600 46700 57200 78900
2021-01-14 13:30 5.34 36300 101000 (2020) 12500 (1967) 35100 13400 15000 22400 23700 30800 41600 46700 57200 78900
2021-01-14 12:30 5.40 36600 101000 (2020) 12500 (1967) 35100 13400 15000 22400 23700 30800 41600 46700 57200 78900
2021-01-14 11:30 5.36 36400 101000 (2020) 12500 (1967) 35100 13400 15000 22400 23700 30800 41600 46700 57200 78900
2021-01-14 10:30 5.37 36500 101000 (2020) 12500 (1967) 35100 13400 15000 22400 23700 30800 41600 46700 57200 78900
2021-01-14 09:30 5.36 36400 101000 (2020) 12500 (1967) 35100 13400 15000 22400 23700 30800 41600 46700 57200 78900
2021-01-14 08:30 5.36 36400 101000 (2020) 12500 (1967) 35100 13400 15000 22400 23700 30800 41600 46700 57200 78900
2021-01-14 07:30 5.32 36300 101000 (2020) 12500 (1967) 35100 13400 15000 22400 23700 30800 41600 46700 57200 78900
2021-01-14 06:30 5.51 37100 101000 (2020) 12500 (1967) 35100 13400 15000 22400 23700 30800 41600 46700 57200 78900
2021-01-14 05:30 5.51 37100 101000 (2020) 12500 (1967) 35100 13400 15000 22400 23700 30800 41600 46700 57200 78900
2021-01-14 04:30 5.50 37100 101000 (2020) 12500 (1967) 35100 13400 15000 22400 23700 30800 41600 46700 57200 78900
2021-01-14 03:30 5.50 37100 101000 (2020) 12500 (1967) 35100 13400 15000 22400 23700 30800 41600 46700 57200 78900
2021-01-14 02:30 5.50 37100 101000 (2020) 12500 (1967) 35100 13400 15000 22400 23700 30800 41600 46700 57200 78900
2021-01-14 01:30 5.50 37100 101000 (2020) 12500 (1967) 35100 13400 15000 22400 23700 30800 41600 46700 57200 78900
2021-01-14 00:30 5.50 37100 101000 (2020) 12500 (1967) 35100 13400 15000 22400 23700 30800 41600 46700 57200 78900
2021-01-13 23:30 5.50 37100 122000 (2020) 11000 (1977) 35300 12400 15500 22600 23900 30900 42200 44200 58400 77300
2021-01-13 22:30 5.49 37000 122000 (2020) 11000 (1977) 35300 12400 15500 22600 23900 30900 42200 44200 58400 77300
2021-01-13 21:30 5.47 36900 122000 (2020) 11000 (1977) 35300 12400 15500 22600 23900 30900 42200 44200 58400 77300
2021-01-13 20:30 5.47 36900 122000 (2020) 11000 (1977) 35300 12400 15500 22600 23900 30900 42200 44200 58400 77300
2021-01-13 19:30 5.47 36900 122000 (2020) 11000 (1977) 35300 12400 15500 22600 23900 30900 42200 44200 58400 77300
2021-01-13 18:30 5.45 36800 122000 (2020) 11000 (1977) 35300 12400 15500 22600 23900 30900 42200 44200 58400 77300
2021-01-13 17:30 5.45 36800 122000 (2020) 11000 (1977) 35300 12400 15500 22600 23900 30900 42200 44200 58400 77300
2021-01-13 16:30 5.44 36800 122000 (2020) 11000 (1977) 35300 12400 15500 22600 23900 30900 42200 44200 58400 77300
2021-01-13 15:30 5.33 36300 122000 (2020) 11000 (1977) 35300 12400 15500 22600 23900 30900 42200 44200 58400 77300
2021-01-13 14:30 5.41 36700 122000 (2020) 11000 (1977) 35300 12400 15500 22600 23900 30900 42200 44200 58400 77300
2021-01-13 13:30 5.45 36800 122000 (2020) 11000 (1977) 35300 12400 15500 22600 23900 30900 42200 44200 58400 77300
2021-01-13 12:30 5.31 36200 122000 (2020) 11000 (1977) 35300 12400 15500 22600 23900 30900 42200 44200 58400 77300
2021-01-13 11:30 5.44 36800 122000 (2020) 11000 (1977) 35300 12400 15500 22600 23900 30900 42200 44200 58400 77300
2021-01-13 10:30 5.45 36800 122000 (2020) 11000 (1977) 35300 12400 15500 22600 23900 30900 42200 44200 58400 77300
2021-01-13 09:30 5.44 36800 122000 (2020) 11000 (1977) 35300 12400 15500 22600 23900 30900 42200 44200 58400 77300
2021-01-13 08:30 5.44 36800 122000 (2020) 11000 (1977) 35300 12400 15500 22600 23900 30900 42200 44200 58400 77300
2021-01-13 07:30 5.43 36700 122000 (2020) 11000 (1977) 35300 12400 15500 22600 23900 30900 42200 44200 58400 77300
2021-01-13 06:30 5.42 36700 122000 (2020) 11000 (1977) 35300 12400 15500 22600 23900 30900 42200 44200 58400 77300
2021-01-13 05:30 5.41 36700 122000 (2020) 11000 (1977) 35300 12400 15500 22600 23900 30900 42200 44200 58400 77300
2021-01-13 04:30 5.41 36700 122000 (2020) 11000 (1977) 35300 12400 15500 22600 23900 30900 42200 44200 58400 77300
2021-01-13 03:30 5.40 36600 122000 (2020) 11000 (1977) 35300 12400 15500 22600 23900 30900 42200 44200 58400 77300
2021-01-13 02:30 5.38 36500 122000 (2020) 11000 (1977) 35300 12400 15500 22600 23900 30900 42200 44200 58400 77300
2021-01-13 01:30 5.32 36300 122000 (2020) 11000 (1977) 35300 12400 15500 22600 23900 30900 42200 44200 58400 77300
2021-01-13 00:30 5.40 36600 122000 (2020) 11000 (1977) 35300 12400 15500 22600 23900 30900 42200 44200 58400 77300
2021-01-12 23:30 5.39 36600 136000 (2020) 10500 (1959) 35800 13400 16500 22100 23400 30200 42100 44300 61000 80100
2021-01-12 22:30 5.36 36400 136000 (2020) 10500 (1959) 35800 13400 16500 22100 23400 30200 42100 44300 61000 80100
2021-01-12 21:30 5.38 36500 136000 (2020) 10500 (1959) 35800 13400 16500 22100 23400 30200 42100 44300 61000 80100
2021-01-12 20:30 5.38 36500 136000 (2020) 10500 (1959) 35800 13400 16500 22100 23400 30200 42100 44300 61000 80100
2021-01-12 19:30 5.37 36500 136000 (2020) 10500 (1959) 35800 13400 16500 22100 23400 30200 42100 44300 61000 80100
2021-01-12 18:30 5.36 36400 136000 (2020) 10500 (1959) 35800 13400 16500 22100 23400 30200 42100 44300 61000 80100
2021-01-12 17:30 5.36 36400 136000 (2020) 10500 (1959) 35800 13400 16500 22100 23400 30200 42100 44300 61000 80100
2021-01-12 16:30 5.35 36400 136000 (2020) 10500 (1959) 35800 13400 16500 22100 23400 30200 42100 44300 61000 80100
2021-01-12 15:30 5.34 36300 136000 (2020) 10500 (1959) 35800 13400 16500 22100 23400 30200 42100 44300 61000 80100
2021-01-12 14:30 5.35 36400 136000 (2020) 10500 (1959) 35800 13400 16500 22100 23400 30200 42100 44300 61000 80100
2021-01-12 13:30 5.25 35900 136000 (2020) 10500 (1959) 35800 13400 16500 22100 23400 30200 42100 44300 61000 80100
2021-01-12 12:30 5.36 36400 136000 (2020) 10500 (1959) 35800 13400 16500 22100 23400 30200 42100 44300 61000 80100
2021-01-12 11:30 5.33 36300 136000 (2020) 10500 (1959) 35800 13400 16500 22100 23400 30200 42100 44300 61000 80100
2021-01-12 10:30 5.34 36300 136000 (2020) 10500 (1959) 35800 13400 16500 22100 23400 30200 42100 44300 61000 80100
2021-01-12 09:30 5.28 36100 136000 (2020) 10500 (1959) 35800 13400 16500 22100 23400 30200 42100 44300 61000 80100
2021-01-12 08:30 5.33 36300 136000 (2020) 10500 (1959) 35800 13400 16500 22100 23400 30200 42100 44300 61000 80100
2021-01-12 07:30 5.34 36300 136000 (2020) 10500 (1959) 35800 13400 16500 22100 23400 30200 42100 44300 61000 80100
2021-01-12 06:30 5.32 36300 136000 (2020) 10500 (1959) 35800 13400 16500 22100 23400 30200 42100 44300 61000 80100
2021-01-12 05:30 5.32 36300 136000 (2020) 10500 (1959) 35800 13400 16500 22100 23400 30200 42100 44300 61000 80100
2021-01-12 04:30 5.32 36300 136000 (2020) 10500 (1959) 35800 13400 16500 22100 23400 30200 42100 44300 61000 80100
2021-01-12 03:30 5.32 36300 136000 (2020) 10500 (1959) 35800 13400 16500 22100 23400 30200 42100 44300 61000 80100
2021-01-12 02:30 5.33 36300 136000 (2020) 10500 (1959) 35800 13400 16500 22100 23400 30200 42100 44300 61000 80100
2021-01-12 01:30 5.33 36300 136000 (2020) 10500 (1959) 35800 13400 16500 22100 23400 30200 42100 44300 61000 80100
2021-01-12 00:30 5.32 36300 136000 (2020) 10500 (1959) 35800 13400 16500 22100 23400 30200 42100 44300 61000 80100
2021-01-11 23:30 5.24 35900 130000 (2016) 10300 (1959) 36500 14200 17400 23100 24300 31100 43500 45500 60100 84500
2021-01-11 22:30 5.26 36000 130000 (2016) 10300 (1959) 36500 14200 17400 23100 24300 31100 43500 45500 60100 84500
2021-01-11 21:30 5.31 36200 130000 (2016) 10300 (1959) 36500 14200 17400 23100 24300 31100 43500 45500 60100 84500
2021-01-11 20:30 5.32 36300 130000 (2016) 10300 (1959) 36500 14200 17400 23100 24300 31100 43500 45500 60100 84500
2021-01-11 19:30 5.31 36200 130000 (2016) 10300 (1959) 36500 14200 17400 23100 24300 31100 43500 45500 60100 84500
2021-01-11 18:30 5.32 36300 130000 (2016) 10300 (1959) 36500 14200 17400 23100 24300 31100 43500 45500 60100 84500
2021-01-11 17:30 5.31 36200 130000 (2016) 10300 (1959) 36500 14200 17400 23100 24300 31100 43500 45500 60100 84500
2021-01-11 16:30 5.31 36200 130000 (2016) 10300 (1959) 36500 14200 17400 23100 24300 31100 43500 45500 60100 84500
2021-01-11 15:30 5.31 36200 130000 (2016) 10300 (1959) 36500 14200 17400 23100 24300 31100 43500 45500 60100 84500
2021-01-11 14:30 5.33 36300 130000 (2016) 10300 (1959) 36500 14200 17400 23100 24300 31100 43500 45500 60100 84500
2021-01-11 13:30 5.33 36300 130000 (2016) 10300 (1959) 36500 14200 17400 23100 24300 31100 43500 45500 60100 84500
2021-01-11 12:30 5.32 36300 130000 (2016) 10300 (1959) 36500 14200 17400 23100 24300 31100 43500 45500 60100 84500
2021-01-11 11:30 5.33 36300 130000 (2016) 10300 (1959) 36500 14200 17400 23100 24300 31100 43500 45500 60100 84500
2021-01-11 10:30 5.34 36300 130000 (2016) 10300 (1959) 36500 14200 17400 23100 24300 31100 43500 45500 60100 84500
2021-01-11 09:30 5.34 36300 130000 (2016) 10300 (1959) 36500 14200 17400 23100 24300 31100 43500 45500 60100 84500
2021-01-11 08:30 5.34 36300 130000 (2016) 10300 (1959) 36500 14200 17400 23100 24300 31100 43500 45500 60100 84500
2021-01-11 07:30 5.35 36400 130000 (2016) 10300 (1959) 36500 14200 17400 23100 24300 31100 43500 45500 60100 84500
2021-01-11 06:30 5.36 36400 130000 (2016) 10300 (1959) 36500 14200 17400 23100 24300 31100 43500 45500 60100 84500
2021-01-11 05:30 5.37 36500 130000 (2016) 10300 (1959) 36500 14200 17400 23100 24300 31100 43500 45500 60100 84500
2021-01-11 04:30 5.37 36500 130000 (2016) 10300 (1959) 36500 14200 17400 23100 24300 31100 43500 45500 60100 84500
2021-01-11 03:30 5.37 36500 130000 (2016) 10300 (1959) 36500 14200 17400 23100 24300 31100 43500 45500 60100 84500
2021-01-11 02:30 5.37 36500 130000 (2016) 10300 (1959) 36500 14200 17400 23100 24300 31100 43500 45500 60100 84500
2021-01-11 01:30 5.38 36500 130000 (2016) 10300 (1959) 36500 14200 17400 23100 24300 31100 43500 45500 60100 84500
2021-01-11 00:30 5.39 36600 130000 (2016) 10300 (1959) 36500 14200 17400 23100 24300 31100 43500 45500 60100 84500
2021-01-10 23:30 5.39 36600 138000 (2016) 9390 (1959) 37000 15100 17900 23400 24200 32400 43800 45900 59500 84100
2021-01-10 22:30 5.39 36600 138000 (2016) 9390 (1959) 37000 15100 17900 23400 24200 32400 43800 45900 59500 84100
2021-01-10 21:30 5.40 36600 138000 (2016) 9390 (1959) 37000 15100 17900 23400 24200 32400 43800 45900 59500 84100
2021-01-10 20:30 5.42 36700 138000 (2016) 9390 (1959) 37000 15100 17900 23400 24200 32400 43800 45900 59500 84100
2021-01-10 19:30 5.42 36700 138000 (2016) 9390 (1959) 37000 15100 17900 23400 24200 32400 43800 45900 59500 84100
2021-01-10 18:30 5.43 36700 138000 (2016) 9390 (1959) 37000 15100 17900 23400 24200 32400 43800 45900 59500 84100
2021-01-10 17:30 5.44 36800 138000 (2016) 9390 (1959) 37000 15100 17900 23400 24200 32400 43800 45900 59500 84100
2021-01-10 16:30 5.45 36800 138000 (2016) 9390 (1959) 37000 15100 17900 23400 24200 32400 43800 45900 59500 84100
2021-01-10 15:30 5.45 36800 138000 (2016) 9390 (1959) 37000 15100 17900 23400 24200 32400 43800 45900 59500 84100
2021-01-10 14:30 5.46 36900 138000 (2016) 9390 (1959) 37000 15100 17900 23400 24200 32400 43800 45900 59500 84100
2021-01-10 13:30 5.46 36900 138000 (2016) 9390 (1959) 37000 15100 17900 23400 24200 32400 43800 45900 59500 84100
2021-01-10 12:30 5.48 37000 138000 (2016) 9390 (1959) 37000 15100 17900 23400 24200 32400 43800 45900 59500 84100
2021-01-10 11:30 5.47 36900 138000 (2016) 9390 (1959) 37000 15100 17900 23400 24200 32400 43800 45900 59500 84100
2021-01-10 10:30 5.49 37000 138000 (2016) 9390 (1959) 37000 15100 17900 23400 24200 32400 43800 45900 59500 84100
2021-01-10 09:30 5.49 37000 138000 (2016) 9390 (1959) 37000 15100 17900 23400 24200 32400 43800 45900 59500 84100
2021-01-10 08:30 5.49 37000 138000 (2016) 9390 (1959) 37000 15100 17900 23400 24200 32400 43800 45900 59500 84100
2021-01-10 07:30 5.50 37100 138000 (2016) 9390 (1959) 37000 15100 17900 23400 24200 32400 43800 45900 59500 84100
2021-01-10 06:30 5.50 37100 138000 (2016) 9390 (1959) 37000 15100 17900 23400 24200 32400 43800 45900 59500 84100
2021-01-10 05:30 5.51 37100 138000 (2016) 9390 (1959) 37000 15100 17900 23400 24200 32400 43800 45900 59500 84100
2021-01-10 04:30 5.52 37200 138000 (2016) 9390 (1959) 37000 15100 17900 23400 24200 32400 43800 45900 59500 84100
2021-01-10 03:30 5.52 37200 138000 (2016) 9390 (1959) 37000 15100 17900 23400 24200 32400 43800 45900 59500 84100
2021-01-10 02:30 5.52 37200 138000 (2016) 9390 (1959) 37000 15100 17900 23400 24200 32400 43800 45900 59500 84100
2021-01-10 01:30 5.53 37200 138000 (2016) 9390 (1959) 37000 15100 17900 23400 24200 32400 43800 45900 59500 84100
2021-01-10 00:30 5.53 37200 138000 (2016) 9390 (1959) 37000 15100 17900 23400 24200 32400 43800 45900 59500 84100
2021-01-09 23:30 5.53 37200 133000 (2016) 8340 (1959) 38000 14300 19400 23900 25500 34500 43200 47600 61000 83200
2021-01-09 22:30 5.54 37200 133000 (2016) 8340 (1959) 38000 14300 19400 23900 25500 34500 43200 47600 61000 83200
2021-01-09 20:30 5.54 37200 133000 (2016) 8340 (1959) 38000 14300 19400 23900 25500 34500 43200 47600 61000 83200
2021-01-09 19:30 5.55 37300 133000 (2016) 8340 (1959) 38000 14300 19400 23900 25500 34500 43200 47600 61000 83200
2021-01-09 18:30 5.55 37300 133000 (2016) 8340 (1959) 38000 14300 19400 23900 25500 34500 43200 47600 61000 83200
2021-01-09 17:30 5.55 37300 133000 (2016) 8340 (1959) 38000 14300 19400 23900 25500 34500 43200 47600 61000 83200
2021-01-09 16:30 5.54 37200 133000 (2016) 8340 (1959) 38000 14300 19400 23900 25500 34500 43200 47600 61000 83200
2021-01-09 15:30 5.51 37100 133000 (2016) 8340 (1959) 38000 14300 19400 23900 25500 34500 43200 47600 61000 83200
2021-01-09 14:30 5.54 37200 133000 (2016) 8340 (1959) 38000 14300 19400 23900 25500 34500 43200 47600 61000 83200
2021-01-09 13:30 5.53 37200 133000 (2016) 8340 (1959) 38000 14300 19400 23900 25500 34500 43200 47600 61000 83200
2021-01-09 12:30 5.54 37200 133000 (2016) 8340 (1959) 38000 14300 19400 23900 25500 34500 43200 47600 61000 83200
2021-01-09 11:30 5.53 37200 133000 (2016) 8340 (1959) 38000 14300 19400 23900 25500 34500 43200 47600 61000 83200
2021-01-09 10:30 5.53 37200 133000 (2016) 8340 (1959) 38000 14300 19400 23900 25500 34500 43200 47600 61000 83200
2021-01-09 09:30 5.54 37200 133000 (2016) 8340 (1959) 38000 14300 19400 23900 25500 34500 43200 47600 61000 83200
2021-01-09 08:30 5.53 37200 133000 (2016) 8340 (1959) 38000 14300 19400 23900 25500 34500 43200 47600 61000 83200
2021-01-09 07:30 5.53 37200 133000 (2016) 8340 (1959) 38000 14300 19400 23900 25500 34500 43200 47600 61000 83200
2021-01-09 06:30 5.51 37100 133000 (2016) 8340 (1959) 38000 14300 19400 23900 25500 34500 43200 47600 61000 83200
2021-01-09 05:30 5.50 37100 133000 (2016) 8340 (1959) 38000 14300 19400 23900 25500 34500 43200 47600 61000 83200
2021-01-09 04:30 5.51 37100 133000 (2016) 8340 (1959) 38000 14300 19400 23900 25500 34500 43200 47600 61000 83200
2021-01-09 03:30 5.50 37100 133000 (2016) 8340 (1959) 38000 14300 19400 23900 25500 34500 43200 47600 61000 83200
2021-01-09 02:30 5.50 37100 133000 (2016) 8340 (1959) 38000 14300 19400 23900 25500 34500 43200 47600 61000 83200
2021-01-09 01:30 5.50 37100 133000 (2016) 8340 (1959) 38000 14300 19400 23900 25500 34500 43200 47600 61000 83200
2021-01-09 00:30 5.49 37000 133000 (2016) 8340 (1959) 38000 14300 19400 23900 25500 34500 43200 47600 61000 83200
2021-01-08 23:30 5.49 37000 106000 (1998) 8200 (1959) 37800 15200 18700 23200 24400 34100 44300 49300 64100 82500
2021-01-08 22:30 5.49 37000 106000 (1998) 8200 (1959) 37800 15200 18700 23200 24400 34100 44300 49300 64100 82500
2021-01-08 21:30 5.47 36900 106000 (1998) 8200 (1959) 37800 15200 18700 23200 24400 34100 44300 49300 64100 82500
2021-01-08 20:30 5.47 36900 106000 (1998) 8200 (1959) 37800 15200 18700 23200 24400 34100 44300 49300 64100 82500
2021-01-08 19:30 5.46 36900 106000 (1998) 8200 (1959) 37800 15200 18700 23200 24400 34100 44300 49300 64100 82500
2021-01-08 18:30 5.46 36900 106000 (1998) 8200 (1959) 37800 15200 18700 23200 24400 34100 44300 49300 64100 82500
2021-01-08 17:30 5.45 36800 106000 (1998) 8200 (1959) 37800 15200 18700 23200 24400 34100 44300 49300 64100 82500
2021-01-08 16:30 5.44 36800 106000 (1998) 8200 (1959) 37800 15200 18700 23200 24400 34100 44300 49300 64100 82500
2021-01-08 15:30 5.45 36800 106000 (1998) 8200 (1959) 37800 15200 18700 23200 24400 34100 44300 49300 64100 82500
2021-01-08 14:30 5.45 36800 106000 (1998) 8200 (1959) 37800 15200 18700 23200 24400 34100 44300 49300 64100 82500
2021-01-08 13:30 5.44 36800 106000 (1998) 8200 (1959) 37800 15200 18700 23200 24400 34100 44300 49300 64100 82500
2021-01-08 12:30 5.44 36800 106000 (1998) 8200 (1959) 37800 15200 18700 23200 24400 34100 44300 49300 64100 82500
2021-01-08 11:30 5.42 36700 106000 (1998) 8200 (1959) 37800 15200 18700 23200 24400 34100 44300 49300 64100 82500
2021-01-08 10:30 5.44 36800 106000 (1998) 8200 (1959) 37800 15200 18700 23200 24400 34100 44300 49300 64100 82500
2021-01-08 09:30 5.43 36700 106000 (1998) 8200 (1959) 37800 15200 18700 23200 24400 34100 44300 49300 64100 82500
2021-01-08 08:30 5.45 36800 106000 (1998) 8200 (1959) 37800 15200 18700 23200 24400 34100 44300 49300 64100 82500
2021-01-08 07:30 5.45 36800 106000 (1998) 8200 (1959) 37800 15200 18700 23200 24400 34100 44300 49300 64100 82500
2021-01-08 06:30 5.47 36900 106000 (1998) 8200 (1959) 37800 15200 18700 23200 24400 34100 44300 49300 64100 82500
2021-01-08 05:30 5.47 36900 106000 (1998) 8200 (1959) 37800 15200 18700 23200 24400 34100 44300 49300 64100 82500
2021-01-08 04:30 5.48 37000 106000 (1998) 8200 (1959) 37800 15200 18700 23200 24400 34100 44300 49300 64100 82500
2021-01-08 03:30 5.48 37000 106000 (1998) 8200 (1959) 37800 15200 18700 23200 24400 34100 44300 49300 64100 82500
2021-01-08 02:30 5.49 37000 106000 (1998) 8200 (1959) 37800 15200 18700 23200 24400 34100 44300 49300 64100 82500
2021-01-08 01:30 5.49 37000 106000 (1998) 8200 (1959) 37800 15200 18700 23200 24400 34100 44300 49300 64100 82500
2021-01-08 00:30 5.51 37100 106000 (1998) 8200 (1959) 37800 15200 18700 23200 24400 34100 44300 49300 64100 82500
2021-01-07 23:30 5.52 37200 106000 (1998) 8200 (1959) 38300 14100 17900 23300 24800 34200 46400 48500 62200 82900
2021-01-07 22:30 5.53 37200 106000 (1998) 8200 (1959) 38300 14100 17900 23300 24800 34200 46400 48500 62200 82900
2021-01-07 21:30 5.54 37200 106000 (1998) 8200 (1959) 38300 14100 17900 23300 24800 34200 46400 48500 62200 82900
2021-01-07 20:30 5.54 37200 106000 (1998) 8200 (1959) 38300 14100 17900 23300 24800 34200 46400 48500 62200 82900
2021-01-07 19:30 5.54 37200 106000 (1998) 8200 (1959) 38300 14100 17900 23300 24800 34200 46400 48500 62200 82900
2021-01-07 18:30 5.49 37000 106000 (1998) 8200 (1959) 38300 14100 17900 23300 24800 34200 46400 48500 62200 82900
2021-01-07 17:30 5.50 37100 106000 (1998) 8200 (1959) 38300 14100 17900 23300 24800 34200 46400 48500 62200 82900
2021-01-07 15:30 5.42 36700 106000 (1998) 8200 (1959) 38300 14100 17900 23300 24800 34200 46400 48500 62200 82900
2021-01-07 14:30 5.51 37100 106000 (1998) 8200 (1959) 38300 14100 17900 23300 24800 34200 46400 48500 62200 82900
2021-01-07 13:30 5.49 37000 106000 (1998) 8200 (1959) 38300 14100 17900 23300 24800 34200 46400 48500 62200 82900
2021-01-07 12:30 5.40 36600 106000 (1998) 8200 (1959) 38300 14100 17900 23300 24800 34200 46400 48500 62200 82900
2021-01-07 11:30 5.41 36700 106000 (1998) 8200 (1959) 38300 14100 17900 23300 24800 34200 46400 48500 62200 82900
2021-01-07 10:30 5.43 36700 106000 (1998) 8200 (1959) 38300 14100 17900 23300 24800 34200 46400 48500 62200 82900
2021-01-07 09:30 5.44 36800 106000 (1998) 8200 (1959) 38300 14100 17900 23300 24800 34200 46400 48500 62200 82900
2021-01-07 08:30 5.46 36900 106000 (1998) 8200 (1959) 38300 14100 17900 23300 24800 34200 46400 48500 62200 82900
2021-01-07 07:30 5.46 36900 106000 (1998) 8200 (1959) 38300 14100 17900 23300 24800 34200 46400 48500 62200 82900
2021-01-07 06:30 5.45 36800 106000 (1998) 8200 (1959) 38300 14100 17900 23300 24800 34200 46400 48500 62200 82900
2021-01-07 05:30 5.46 36900 106000 (1998) 8200 (1959) 38300 14100 17900 23300 24800 34200 46400 48500 62200 82900
2021-01-07 04:30 5.50 37100 106000 (1998) 8200 (1959) 38300 14100 17900 23300 24800 34200 46400 48500 62200 82900
2021-01-07 03:30 5.56 37300 106000 (1998) 8200 (1959) 38300 14100 17900 23300 24800 34200 46400 48500 62200 82900
2021-01-07 02:30 5.51 37100 106000 (1998) 8200 (1959) 38300 14100 17900 23300 24800 34200 46400 48500 62200 82900
2021-01-07 01:30 5.50 37100 106000 (1998) 8200 (1959) 38300 14100 17900 23300 24800 34200 46400 48500 62200 82900
2021-01-07 00:30 5.52 37200 106000 (1998) 8200 (1959) 38300 14100 17900 23300 24800 34200 46400 48500 62200 82900
2021-01-06 23:30 5.48 37000 93000 (1998) 8340 (1959) 39500 14900 17200 23300 25400 35000 48600 50500 73900 84100
2021-01-06 22:30 5.48 37000 93000 (1998) 8340 (1959) 39500 14900 17200 23300 25400 35000 48600 50500 73900 84100
2021-01-06 21:30 5.50 37100 93000 (1998) 8340 (1959) 39500 14900 17200 23300 25400 35000 48600 50500 73900 84100
2021-01-06 20:30 5.47 36900 93000 (1998) 8340 (1959) 39500 14900 17200 23300 25400 35000 48600 50500 73900 84100
2021-01-06 19:30 5.51 37100 93000 (1998) 8340 (1959) 39500 14900 17200 23300 25400 35000 48600 50500 73900 84100
2021-01-06 18:30 5.49 37000 93000 (1998) 8340 (1959) 39500 14900 17200 23300 25400 35000 48600 50500 73900 84100
2021-01-06 17:30 5.49 37000 93000 (1998) 8340 (1959) 39500 14900 17200 23300 25400 35000 48600 50500 73900 84100
2021-01-06 16:30 5.52 37200 93000 (1998) 8340 (1959) 39500 14900 17200 23300 25400 35000 48600 50500 73900 84100
2021-01-06 15:30 5.56 37300 93000 (1998) 8340 (1959) 39500 14900 17200 23300 25400 35000 48600 50500 73900 84100
2021-01-06 14:30 5.60 37500 93000 (1998) 8340 (1959) 39500 14900 17200 23300 25400 35000 48600 50500 73900 84100
2021-01-06 13:30 5.49 37000 93000 (1998) 8340 (1959) 39500 14900 17200 23300 25400 35000 48600 50500 73900 84100
2021-01-06 12:30 5.52 37200 93000 (1998) 8340 (1959) 39500 14900 17200 23300 25400 35000 48600 50500 73900 84100
2021-01-06 11:30 5.47 36900 93000 (1998) 8340 (1959) 39500 14900 17200 23300 25400 35000 48600 50500 73900 84100
2021-01-06 10:30 5.48 37000 93000 (1998) 8340 (1959) 39500 14900 17200 23300 25400 35000 48600 50500 73900 84100
2021-01-06 09:30 5.47 36900 93000 (1998) 8340 (1959) 39500 14900 17200 23300 25400 35000 48600 50500 73900 84100
2021-01-06 08:30 5.52 37200 93000 (1998) 8340 (1959) 39500 14900 17200 23300 25400 35000 48600 50500 73900 84100
2021-01-06 07:30 5.49 37000 93000 (1998) 8340 (1959) 39500 14900 17200 23300 25400 35000 48600 50500 73900 84100
2021-01-06 06:30 5.56 37300 93000 (1998) 8340 (1959) 39500 14900 17200 23300 25400 35000 48600 50500 73900 84100
2021-01-06 05:30 5.56 37300 93000 (1998) 8340 (1959) 39500 14900 17200 23300 25400 35000 48600 50500 73900 84100
2021-01-06 04:30 5.61 37600 93000 (1998) 8340 (1959) 39500 14900 17200 23300 25400 35000 48600 50500 73900 84100
2021-01-06 03:30 5.60 37500 93000 (1998) 8340 (1959) 39500 14900 17200 23300 25400 35000 48600 50500 73900 84100
2021-01-06 02:30 5.49 37000 93000 (1998) 8340 (1959) 39500 14900 17200 23300 25400 35000 48600 50500 73900 84100
2021-01-06 01:30 5.53 37200 93000 (1998) 8340 (1959) 39500 14900 17200 23300 25400 35000 48600 50500 73900 84100
2021-01-06 00:30 5.58 37400 93000 (1998) 8340 (1959) 39500 14900 17200 23300 25400 35000 48600 50500 73900 84100
2021-01-05 23:30 5.57 37400 95600 (1993) 14500 (1959) 40700 17100 19200 23900 25800 36200 48500 52200 78600 85500
2021-01-05 22:30 5.51 37100 95600 (1993) 14500 (1959) 40700 17100 19200 23900 25800 36200 48500 52200 78600 85500
2021-01-05 21:30 5.55 37300 95600 (1993) 14500 (1959) 40700 17100 19200 23900 25800 36200 48500 52200 78600 85500
2021-01-05 20:30 5.56 37300 95600 (1993) 14500 (1959) 40700 17100 19200 23900 25800 36200 48500 52200 78600 85500
2021-01-05 19:30 5.55 37300 95600 (1993) 14500 (1959) 40700 17100 19200 23900 25800 36200 48500 52200 78600 85500
2021-01-05 18:30 5.57 37400 95600 (1993) 14500 (1959) 40700 17100 19200 23900 25800 36200 48500 52200 78600 85500
2021-01-05 17:30 5.57 37400 95600 (1993) 14500 (1959) 40700 17100 19200 23900 25800 36200 48500 52200 78600 85500
2021-01-05 16:30 5.57 37400 95600 (1993) 14500 (1959) 40700 17100 19200 23900 25800 36200 48500 52200 78600 85500
2021-01-05 15:30 5.58 37400 95600 (1993) 14500 (1959) 40700 17100 19200 23900 25800 36200 48500 52200 78600 85500
2021-01-05 14:30 5.59 37500 95600 (1993) 14500 (1959) 40700 17100 19200 23900 25800 36200 48500 52200 78600 85500
2021-01-05 12:30 5.60 37500 95600 (1993) 14500 (1959) 40700 17100 19200 23900 25800 36200 48500 52200 78600 85500
2021-01-05 11:30 5.60 37500 95600 (1993) 14500 (1959) 40700 17100 19200 23900 25800 36200 48500 52200 78600 85500
2021-01-05 10:30 5.59 37500 95600 (1993) 14500 (1959) 40700 17100 19200 23900 25800 36200 48500 52200 78600 85500
2021-01-05 09:30 5.60 37500 95600 (1993) 14500 (1959) 40700 17100 19200 23900 25800 36200 48500 52200 78600 85500
2021-01-05 08:30 5.59 37500 95600 (1993) 14500 (1959) 40700 17100 19200 23900 25800 36200 48500 52200 78600 85500
2021-01-05 07:30 5.60 37500 95600 (1993) 14500 (1959) 40700 17100 19200 23900 25800 36200 48500 52200 78600 85500
2021-01-05 06:30 5.60 37500 95600 (1993) 14500 (1959) 40700 17100 19200 23900 25800 36200 48500 52200 78600 85500
2021-01-05 05:30 5.60 37500 95600 (1993) 14500 (1959) 40700 17100 19200 23900 25800 36200 48500 52200 78600 85500
2021-01-05 04:30 5.61 37600 95600 (1993) 14500 (1959) 40700 17100 19200 23900 25800 36200 48500 52200 78600 85500
2021-01-05 03:30 5.61 37600 95600 (1993) 14500 (1959) 40700 17100 19200 23900 25800 36200 48500 52200 78600 85500
2021-01-05 02:30 5.62 37600 95600 (1993) 14500 (1959) 40700 17100 19200 23900 25800 36200 48500 52200 78600 85500
2021-01-05 01:30 5.63 37700 95600 (1993) 14500 (1959) 40700 17100 19200 23900 25800 36200 48500 52200 78600 85500
2021-01-05 00:30 5.65 37800 95600 (1993) 14500 (1959) 40700 17100 19200 23900 25800 36200 48500 52200 78600 85500
2021-01-04 23:30 5.66 37800 95700 (2019) 15000 (1964) 40600 18600 19600 25100 26100 37000 49000 54900 70000 89900
2021-01-04 22:30 5.67 37800 95700 (2019) 15000 (1964) 40600 18600 19600 25100 26100 37000 49000 54900 70000 89900
2021-01-04 21:30 5.69 37900 95700 (2019) 15000 (1964) 40600 18600 19600 25100 26100 37000 49000 54900 70000 89900
2021-01-04 20:30 5.69 37900 95700 (2019) 15000 (1964) 40600 18600 19600 25100 26100 37000 49000 54900 70000 89900
2021-01-04 19:30 5.70 38000 95700 (2019) 15000 (1964) 40600 18600 19600 25100 26100 37000 49000 54900 70000 89900
2021-01-04 18:30 5.71 38000 95700 (2019) 15000 (1964) 40600 18600 19600 25100 26100 37000 49000 54900 70000 89900
2021-01-04 17:30 5.72 38100 95700 (2019) 15000 (1964) 40600 18600 19600 25100 26100 37000 49000 54900 70000 89900
2021-01-04 16:30 5.71 38000 95700 (2019) 15000 (1964) 40600 18600 19600 25100 26100 37000 49000 54900 70000 89900
2021-01-04 15:30 5.75 38200 95700 (2019) 15000 (1964) 40600 18600 19600 25100 26100 37000 49000 54900 70000 89900
2021-01-04 14:30 5.77 38300 95700 (2019) 15000 (1964) 40600 18600 19600 25100 26100 37000 49000 54900 70000 89900
2021-01-04 13:30 5.77 38300 95700 (2019) 15000 (1964) 40600 18600 19600 25100 26100 37000 49000 54900 70000 89900
2021-01-04 12:30 5.78 38400 95700 (2019) 15000 (1964) 40600 18600 19600 25100 26100 37000 49000 54900 70000 89900
2021-01-04 11:30 5.80 38500 95700 (2019) 15000 (1964) 40600 18600 19600 25100 26100 37000 49000 54900 70000 89900
2021-01-04 10:30 5.81 38500 95700 (2019) 15000 (1964) 40600 18600 19600 25100 26100 37000 49000 54900 70000 89900
2021-01-04 09:30 5.83 38600 95700 (2019) 15000 (1964) 40600 18600 19600 25100 26100 37000 49000 54900 70000 89900
2021-01-04 08:30 5.86 38700 95700 (2019) 15000 (1964) 40600 18600 19600 25100 26100 37000 49000 54900 70000 89900
2021-01-04 07:30 5.83 38600 95700 (2019) 15000 (1964) 40600 18600 19600 25100 26100 37000 49000 54900 70000 89900
2021-01-04 06:30 5.90 38900 95700 (2019) 15000 (1964) 40600 18600 19600 25100 26100 37000 49000 54900 70000 89900
2021-01-04 05:30 5.92 39000 95700 (2019) 15000 (1964) 40600 18600 19600 25100 26100 37000 49000 54900 70000 89900
2021-01-04 04:30 5.94 39100 95700 (2019) 15000 (1964) 40600 18600 19600 25100 26100 37000 49000 54900 70000 89900
2021-01-04 03:30 5.97 39300 95700 (2019) 15000 (1964) 40600 18600 19600 25100 26100 37000 49000 54900 70000 89900
2021-01-04 02:30 5.98 39300 95700 (2019) 15000 (1964) 40600 18600 19600 25100 26100 37000 49000 54900 70000 89900
2021-01-04 01:30 5.97 39300 95700 (2019) 15000 (1964) 40600 18600 19600 25100 26100 37000 49000 54900 70000 89900
2021-01-04 00:30 6.00 39400 95700 (2019) 15000 (1964) 40600 18600 19600 25100 26100 37000 49000 54900 70000 89900
2021-01-03 23:30 6.02 39500 114000 (2019) 12600 (1967) 41000 18100 20100 24800 26000 37300 47500 50600 67800 99000
2021-01-03 22:30 6.03 39500 114000 (2019) 12600 (1967) 41000 18100 20100 24800 26000 37300 47500 50600 67800 99000
2021-01-03 21:30 6.06 39700 114000 (2019) 12600 (1967) 41000 18100 20100 24800 26000 37300 47500 50600 67800 99000
2021-01-03 20:30 6.08 39800 114000 (2019) 12600 (1967) 41000 18100 20100 24800 26000 37300 47500 50600 67800 99000
2021-01-03 19:30 6.07 39700 114000 (2019) 12600 (1967) 41000 18100 20100 24800 26000 37300 47500 50600 67800 99000
2021-01-03 18:30 6.02 39500 114000 (2019) 12600 (1967) 41000 18100 20100 24800 26000 37300 47500 50600 67800 99000
2021-01-03 17:30 6.07 39700 114000 (2019) 12600 (1967) 41000 18100 20100 24800 26000 37300 47500 50600 67800 99000
2021-01-03 16:30 6.12 40000 114000 (2019) 12600 (1967) 41000 18100 20100 24800 26000 37300 47500 50600 67800 99000
2021-01-03 15:30 6.13 40000 114000 (2019) 12600 (1967) 41000 18100 20100 24800 26000 37300 47500 50600 67800 99000
2021-01-03 14:30 6.12 40000 114000 (2019) 12600 (1967) 41000 18100 20100 24800 26000 37300 47500 50600 67800 99000
2021-01-03 13:30 6.11 39900 114000 (2019) 12600 (1967) 41000 18100 20100 24800 26000 37300 47500 50600 67800 99000
2021-01-03 12:30 6.13 40000 114000 (2019) 12600 (1967) 41000 18100 20100 24800 26000 37300 47500 50600 67800 99000
2021-01-03 11:30 6.14 40100 114000 (2019) 12600 (1967) 41000 18100 20100 24800 26000 37300 47500 50600 67800 99000
2021-01-03 10:30 6.12 40000 114000 (2019) 12600 (1967) 41000 18100 20100 24800 26000 37300 47500 50600 67800 99000
2021-01-03 09:30 6.11 39900 114000 (2019) 12600 (1967) 41000 18100 20100 24800 26000 37300 47500 50600 67800 99000
2021-01-03 08:30 6.10 39900 114000 (2019) 12600 (1967) 41000 18100 20100 24800 26000 37300 47500 50600 67800 99000
2021-01-03 07:30 6.09 39800 114000 (2019) 12600 (1967) 41000 18100 20100 24800 26000 37300 47500 50600 67800 99000
2021-01-03 06:30 6.07 39700 114000 (2019) 12600 (1967) 41000 18100 20100 24800 26000 37300 47500 50600 67800 99000
2021-01-03 05:30 6.05 39600 114000 (2019) 12600 (1967) 41000 18100 20100 24800 26000 37300 47500 50600 67800 99000
2021-01-03 04:30 6.02 39500 114000 (2019) 12600 (1967) 41000 18100 20100 24800 26000 37300 47500 50600 67800 99000
2021-01-03 03:30 5.99 39400 114000 (2019) 12600 (1967) 41000 18100 20100 24800 26000 37300 47500 50600 67800 99000
2021-01-03 02:30 5.97 39300 114000 (2019) 12600 (1967) 41000 18100 20100 24800 26000 37300 47500 50600 67800 99000
2021-01-03 01:30 5.94 39100 114000 (2019) 12600 (1967) 41000 18100 20100 24800 26000 37300 47500 50600 67800 99000
2021-01-03 00:30 5.91 39000 114000 (2019) 12600 (1967) 41000 18100 20100 24800 26000 37300 47500 50600 67800 99000
2021-01-02 23:30 5.88 38800 141000 (2019) 12800 (1967) 43100 18500 22000 24500 27000 37100 48400 51300 80600 119000
2021-01-02 22:30 5.85 38700 141000 (2019) 12800 (1967) 43100 18500 22000 24500 27000 37100 48400 51300 80600 119000
2021-01-02 21:30 5.83 38600 141000 (2019) 12800 (1967) 43100 18500 22000 24500 27000 37100 48400 51300 80600 119000
2021-01-02 20:30 5.81 38500 141000 (2019) 12800 (1967) 43100 18500 22000 24500 27000 37100 48400 51300 80600 119000
2021-01-02 19:30 5.79 38400 141000 (2019) 12800 (1967) 43100 18500 22000 24500 27000 37100 48400 51300 80600 119000
2021-01-02 18:30 5.76 38300 141000 (2019) 12800 (1967) 43100 18500 22000 24500 27000 37100 48400 51300 80600 119000
2021-01-02 17:30 5.74 38200 141000 (2019) 12800 (1967) 43100 18500 22000 24500 27000 37100 48400 51300 80600 119000
2021-01-02 16:30 5.72 38100 141000 (2019) 12800 (1967) 43100 18500 22000 24500 27000 37100 48400 51300 80600 119000
2021-01-02 15:30 5.68 37900 141000 (2019) 12800 (1967) 43100 18500 22000 24500 27000 37100 48400 51300 80600 119000
2021-01-02 14:30 5.65 37800 141000 (2019) 12800 (1967) 43100 18500 22000 24500 27000 37100 48400 51300 80600 119000
2021-01-02 13:30 5.63 37700 141000 (2019) 12800 (1967) 43100 18500 22000 24500 27000 37100 48400 51300 80600 119000
2021-01-02 12:30 5.60 37500 141000 (2019) 12800 (1967) 43100 18500 22000 24500 27000 37100 48400 51300 80600 119000
2021-01-02 11:30 5.58 37400 141000 (2019) 12800 (1967) 43100 18500 22000 24500 27000 37100 48400 51300 80600 119000
2021-01-02 10:30 5.54 37200 141000 (2019) 12800 (1967) 43100 18500 22000 24500 27000 37100 48400 51300 80600 119000
2021-01-02 09:30 5.52 37200 141000 (2019) 12800 (1967) 43100 18500 22000 24500 27000 37100 48400 51300 80600 119000
2021-01-02 08:30 5.49 37000 141000 (2019) 12800 (1967) 43100 18500 22000 24500 27000 37100 48400 51300 80600 119000
2021-01-02 07:30 5.46 36900 141000 (2019) 12800 (1967) 43100 18500 22000 24500 27000 37100 48400 51300 80600 119000
2021-01-02 06:30 5.43 36700 141000 (2019) 12800 (1967) 43100 18500 22000 24500 27000 37100 48400 51300 80600 119000
2021-01-02 05:30 5.40 36600 141000 (2019) 12800 (1967) 43100 18500 22000 24500 27000 37100 48400 51300 80600 119000
2021-01-02 04:30 5.37 36500 141000 (2019) 12800 (1967) 43100 18500 22000 24500 27000 37100 48400 51300 80600 119000
2021-01-02 03:30 5.34 36300 141000 (2019) 12800 (1967) 43100 18500 22000 24500 27000 37100 48400 51300 80600 119000
2021-01-02 02:30 5.32 36300 141000 (2019) 12800 (1967) 43100 18500 22000 24500 27000 37100 48400 51300 80600 119000
2021-01-02 01:30 5.30 36200 141000 (2019) 12800 (1967) 43100 18500 22000 24500 27000 37100 48400 51300 80600 119000
2021-01-02 00:30 5.29 36100 141000 (2019) 12800 (1967) 43100 18500 22000 24500 27000 37100 48400 51300 80600 119000
2021-01-01 23:30 5.26 36000 150000 (1973) 14000 (1964) 45400 18100 22500 25700 27300 38100 51200 53900 101000 138000
2021-01-01 22:30 5.25 35900 150000 (1973) 14000 (1964) 45400 18100 22500 25700 27300 38100 51200 53900 101000 138000
2021-01-01 21:30 5.22 35800 150000 (1973) 14000 (1964) 45400 18100 22500 25700 27300 38100 51200 53900 101000 138000
2021-01-01 20:30 5.20 35700 150000 (1973) 14000 (1964) 45400 18100 22500 25700 27300 38100 51200 53900 101000 138000
2021-01-01 19:30 5.18 35600 150000 (1973) 14000 (1964) 45400 18100 22500 25700 27300 38100 51200 53900 101000 138000
2021-01-01 18:30 5.15 35500 150000 (1973) 14000 (1964) 45400 18100 22500 25700 27300 38100 51200 53900 101000 138000
2021-01-01 17:30 5.14 35500 150000 (1973) 14000 (1964) 45400 18100 22500 25700 27300 38100 51200 53900 101000 138000
2021-01-01 16:30 5.12 35400 150000 (1973) 14000 (1964) 45400 18100 22500 25700 27300 38100 51200 53900 101000 138000
2021-01-01 15:30 5.10 35300 150000 (1973) 14000 (1964) 45400 18100 22500 25700 27300 38100 51200 53900 101000 138000
2021-01-01 14:30 5.08 35200 150000 (1973) 14000 (1964) 45400 18100 22500 25700 27300 38100 51200 53900 101000 138000
2021-01-01 13:30 5.04 35000 150000 (1973) 14000 (1964) 45400 18100 22500 25700 27300 38100 51200 53900 101000 138000
2021-01-01 12:30 5.02 34900 150000 (1973) 14000 (1964) 45400 18100 22500 25700 27300 38100 51200 53900 101000 138000
2021-01-01 11:30 5.01 34900 150000 (1973) 14000 (1964) 45400 18100 22500 25700 27300 38100 51200 53900 101000 138000
2021-01-01 10:30 4.94 34600 150000 (1973) 14000 (1964) 45400 18100 22500 25700 27300 38100 51200 53900 101000 138000
2021-01-01 09:30 4.92 34500 150000 (1973) 14000 (1964) 45400 18100 22500 25700 27300 38100 51200 53900 101000 138000
2021-01-01 08:30 4.87 34300 150000 (1973) 14000 (1964) 45400 18100 22500 25700 27300 38100 51200 53900 101000 138000
2021-01-01 07:30 4.70 33600 150000 (1973) 14000 (1964) 45400 18100 22500 25700 27300 38100 51200 53900 101000 138000
2021-01-01 06:30 4.71 33600 150000 (1973) 14000 (1964) 45400 18100 22500 25700 27300 38100 51200 53900 101000 138000
2021-01-01 05:30 4.66 33400 150000 (1973) 14000 (1964) 45400 18100 22500 25700 27300 38100 51200 53900 101000 138000
2021-01-01 04:30 4.66 33400 150000 (1973) 14000 (1964) 45400 18100 22500 25700 27300 38100 51200 53900 101000 138000
2021-01-01 03:30 4.64 33300 150000 (1973) 14000 (1964) 45400 18100 22500 25700 27300 38100 51200 53900 101000 138000
2021-01-01 02:30 4.61 33200 150000 (1973) 14000 (1964) 45400 18100 22500 25700 27300 38100 51200 53900 101000 138000
2021-01-01 01:30 4.57 33000 150000 (1973) 14000 (1964) 45400 18100 22500 25700 27300 38100 51200 53900 101000 138000
2021-01-01 00:30 4.60 33100 150000 (1973) 14000 (1964) 45400 18100 22500 25700 27300 38100 51200 53900 101000 138000
2020-12-31 23:30 4.55 32900 140000 (1973) 14000 (1964) 46600 18400 23100 26200 27400 37700 53100 56000 114000 134000
2020-12-31 22:30 4.54 32900 140000 (1973) 14000 (1964) 46600 18400 23100 26200 27400 37700 53100 56000 114000 134000
2020-12-31 21:30 4.60 33100 140000 (1973) 14000 (1964) 46600 18400 23100 26200 27400 37700 53100 56000 114000 134000
2020-12-31 20:30 4.60 33100 140000 (1973) 14000 (1964) 46600 18400 23100 26200 27400 37700 53100 56000 114000 134000
2020-12-31 19:30 4.65 33300 140000 (1973) 14000 (1964) 46600 18400 23100 26200 27400 37700 53100 56000 114000 134000
2020-12-31 18:30 4.57 33000 140000 (1973) 14000 (1964) 46600 18400 23100 26200 27400 37700 53100 56000 114000 134000
2020-12-31 17:30 4.59 33100 140000 (1973) 14000 (1964) 46600 18400 23100 26200 27400 37700 53100 56000 114000 134000
2020-12-31 16:30 4.57 33000 140000 (1973) 14000 (1964) 46600 18400 23100 26200 27400 37700 53100 56000 114000 134000
2020-12-31 15:30 4.65 33300 140000 (1973) 14000 (1964) 46600 18400 23100 26200 27400 37700 53100 56000 114000 134000
2020-12-31 14:30 4.68 33500 140000 (1973) 14000 (1964) 46600 18400 23100 26200 27400 37700 53100 56000 114000 134000
2020-12-31 13:30 4.64 33300 140000 (1973) 14000 (1964) 46600 18400 23100 26200 27400 37700 53100 56000 114000 134000
2020-12-31 12:30 4.64 33300 140000 (1973) 14000 (1964) 46600 18400 23100 26200 27400 37700 53100 56000 114000 134000
2020-12-31 11:30 4.67 33400 140000 (1973) 14000 (1964) 46600 18400 23100 26200 27400 37700 53100 56000 114000 134000
2020-12-31 10:30 4.67 33400 140000 (1973) 14000 (1964) 46600 18400 23100 26200 27400 37700 53100 56000 114000 134000
2020-12-31 09:30 4.67 33400 140000 (1973) 14000 (1964) 46600 18400 23100 26200 27400 37700 53100 56000 114000 134000
2020-12-31 08:30 4.82 34100 140000 (1973) 14000 (1964) 46600 18400 23100 26200 27400 37700 53100 56000 114000 134000
2020-12-31 07:30 4.83 34100 140000 (1973) 14000 (1964) 46600 18400 23100 26200 27400 37700 53100 56000 114000 134000
2020-12-31 06:30 4.83 34100 140000 (1973) 14000 (1964) 46600 18400 23100 26200 27400 37700 53100 56000 114000 134000
2020-12-31 05:30 4.84 34100 140000 (1973) 14000 (1964) 46600 18400 23100 26200 27400 37700 53100 56000 114000 134000
2020-12-31 04:30 4.84 34100 140000 (1973) 14000 (1964) 46600 18400 23100 26200 27400 37700 53100 56000 114000 134000
2020-12-31 03:30 4.86 34200 140000 (1973) 14000 (1964) 46600 18400 23100 26200 27400 37700 53100 56000 114000 134000
2020-12-31 02:30 4.88 34300 140000 (1973) 14000 (1964) 46600 18400 23100 26200 27400 37700 53100 56000 114000 134000
2020-12-31 01:30 4.89 34400 140000 (1973) 14000 (1964) 46600 18400 23100 26200 27400 37700 53100 56000 114000 134000
2020-12-31 00:30 4.90 34400 140000 (1973) 14000 (1964) 46600 18400 23100 26200 27400 37700 53100 56000 114000 134000
2020-12-30 23:30 4.92 34500 154000 (2016) 13000 (1964) 45600 16700 20400 26100 27200 37800 51100 55700 95500 130000
2020-12-30 22:30 4.93 34500 154000 (2016) 13000 (1964) 45600 16700 20400 26100 27200 37800 51100 55700 95500 130000
2020-12-30 21:30 4.94 34600 154000 (2016) 13000 (1964) 45600 16700 20400 26100 27200 37800 51100 55700 95500 130000
2020-12-30 20:30 4.94 34600 154000 (2016) 13000 (1964) 45600 16700 20400 26100 27200 37800 51100 55700 95500 130000
2020-12-30 19:30 4.95 34600 154000 (2016) 13000 (1964) 45600 16700 20400 26100 27200 37800 51100 55700 95500 130000
2020-12-30 18:30 4.95 34600 154000 (2016) 13000 (1964) 45600 16700 20400 26100 27200 37800 51100 55700 95500 130000
2020-12-30 17:30 4.96 34700 154000 (2016) 13000 (1964) 45600 16700 20400 26100 27200 37800 51100 55700 95500 130000
2020-12-30 16:30 4.96 34700 154000 (2016) 13000 (1964) 45600 16700 20400 26100 27200 37800 51100 55700 95500 130000
2020-12-30 15:30 4.98 34800 154000 (2016) 13000 (1964) 45600 16700 20400 26100 27200 37800 51100 55700 95500 130000
2020-12-30 14:30 4.94 34600 154000 (2016) 13000 (1964) 45600 16700 20400 26100 27200 37800 51100 55700 95500 130000
2020-12-30 13:30 4.97 34700 154000 (2016) 13000 (1964) 45600 16700 20400 26100 27200 37800 51100 55700 95500 130000
2020-12-30 12:30 4.94 34600 154000 (2016) 13000 (1964) 45600 16700 20400 26100 27200 37800 51100 55700 95500 130000
2020-12-30 11:30 4.99 34800 154000 (2016) 13000 (1964) 45600 16700 20400 26100 27200 37800 51100 55700 95500 130000
2020-12-30 10:30 4.99 34800 154000 (2016) 13000 (1964) 45600 16700 20400 26100 27200 37800 51100 55700 95500 130000
2020-12-30 09:30 5.00 34800 154000 (2016) 13000 (1964) 45600 16700 20400 26100 27200 37800 51100 55700 95500 130000
2020-12-30 08:30 4.98 34800 154000 (2016) 13000 (1964) 45600 16700 20400 26100 27200 37800 51100 55700 95500 130000
2020-12-30 07:30 5.01 34900 154000 (2016) 13000 (1964) 45600 16700 20400 26100 27200 37800 51100 55700 95500 130000
2020-12-30 06:30 5.02 34900 154000 (2016) 13000 (1964) 45600 16700 20400 26100 27200 37800 51100 55700 95500 130000
2020-12-30 05:30 5.03 35000 154000 (2016) 13000 (1964) 45600 16700 20400 26100 27200 37800 51100 55700 95500 130000
2020-12-30 04:30 5.00 34800 154000 (2016) 13000 (1964) 45600 16700 20400 26100 27200 37800 51100 55700 95500 130000
2020-12-30 03:30 4.94 34600 154000 (2016) 13000 (1964) 45600 16700 20400 26100 27200 37800 51100 55700 95500 130000
2020-12-30 02:30 4.91 34400 154000 (2016) 13000 (1964) 45600 16700 20400 26100 27200 37800 51100 55700 95500 130000
2020-12-30 01:30 5.04 35000 154000 (2016) 13000 (1964) 45600 16700 20400 26100 27200 37800 51100 55700 95500 130000
2020-12-30 00:30 5.01 34900 154000 (2016) 13000 (1964) 45600 16700 20400 26100 27200 37800 51100 55700 95500 130000
2020-12-29 23:30 5.02 34900 171000 (2016) 12000 (1964) 44400 16000 21900 25600 28500 38600 48900 53300 75700 115000
2020-12-29 22:30 5.02 34900 171000 (2016) 12000 (1964) 44400 16000 21900 25600 28500 38600 48900 53300 75700 115000
2020-12-29 21:30 5.02 34900 171000 (2016) 12000 (1964) 44400 16000 21900 25600 28500 38600 48900 53300 75700 115000
2020-12-29 20:30 4.93 34500 171000 (2016) 12000 (1964) 44400 16000 21900 25600 28500 38600 48900 53300 75700 115000
2020-12-29 19:30 4.87 34300 171000 (2016) 12000 (1964) 44400 16000 21900 25600 28500 38600 48900 53300 75700 115000
2020-12-29 18:30 4.89 34400 171000 (2016) 12000 (1964) 44400 16000 21900 25600 28500 38600 48900 53300 75700 115000
2020-12-29 17:30 4.88 34300 171000 (2016) 12000 (1964) 44400 16000 21900 25600 28500 38600 48900 53300 75700 115000
2020-12-29 16:30 4.83 34100 171000 (2016) 12000 (1964) 44400 16000 21900 25600 28500 38600 48900 53300 75700 115000
2020-12-29 14:30 4.83 34100 171000 (2016) 12000 (1964) 44400 16000 21900 25600 28500 38600 48900 53300 75700 115000
2020-12-29 13:30 4.86 34200 171000 (2016) 12000 (1964) 44400 16000 21900 25600 28500 38600 48900 53300 75700 115000
2020-12-29 12:30 4.76 33800 171000 (2016) 12000 (1964) 44400 16000 21900 25600 28500 38600 48900 53300 75700 115000
2020-12-29 11:30 4.78 33900 171000 (2016) 12000 (1964) 44400 16000 21900 25600 28500 38600 48900 53300 75700 115000
2020-12-29 10:30 4.79 33900 171000 (2016) 12000 (1964) 44400 16000 21900 25600 28500 38600 48900 53300 75700 115000
2020-12-29 09:30 4.82 34100 171000 (2016) 12000 (1964) 44400 16000 21900 25600 28500 38600 48900 53300 75700 115000
2020-12-29 08:30 4.83 34100 171000 (2016) 12000 (1964) 44400 16000 21900 25600 28500 38600 48900 53300 75700 115000
2020-12-29 07:30 4.76 33800 171000 (2016) 12000 (1964) 44400 16000 21900 25600 28500 38600 48900 53300 75700 115000
2020-12-29 06:30 4.76 33800 171000 (2016) 12000 (1964) 44400 16000 21900 25600 28500 38600 48900 53300 75700 115000
2020-12-29 05:30 4.77 33800 171000 (2016) 12000 (1964) 44400 16000 21900 25600 28500 38600 48900 53300 75700 115000
2020-12-29 04:30 4.82 34100 171000 (2016) 12000 (1964) 44400 16000 21900 25600 28500 38600 48900 53300 75700 115000
2020-12-29 03:30 4.77 33800 171000 (2016) 12000 (1964) 44400 16000 21900 25600 28500 38600 48900 53300 75700 115000
2020-12-29 02:30 4.78 33900 171000 (2016) 12000 (1964) 44400 16000 21900 25600 28500 38600 48900 53300 75700 115000
2020-12-29 01:30 4.76 33800 171000 (2016) 12000 (1964) 44400 16000 21900 25600 28500 38600 48900 53300 75700 115000
2020-12-29 00:30 4.82 34100 171000 (2016) 12000 (1964) 44400 16000 21900 25600 28500 38600 48900 53300 75700 115000
2020-12-28 23:30 4.80 34000 161000 (2016) 11000 (1964) 43000 17500 22100 25300 27100 38300 49500 55200 76400 88700
2020-12-28 22:30 4.83 34100 161000 (2016) 11000 (1964) 43000 17500 22100 25300 27100 38300 49500 55200 76400 88700
2020-12-28 21:30 4.93 34500 161000 (2016) 11000 (1964) 43000 17500 22100 25300 27100 38300 49500 55200 76400 88700
2020-12-28 20:30 4.95 34600 161000 (2016) 11000 (1964) 43000 17500 22100 25300 27100 38300 49500 55200 76400 88700
2020-12-28 19:30 4.94 34600 161000 (2016) 11000 (1964) 43000 17500 22100 25300 27100 38300 49500 55200 76400 88700
2020-12-28 18:30 4.94 34600 161000 (2016) 11000 (1964) 43000 17500 22100 25300 27100 38300 49500 55200 76400 88700
2020-12-28 17:30 4.93 34500 161000 (2016) 11000 (1964) 43000 17500 22100 25300 27100 38300 49500 55200 76400 88700
2020-12-28 16:30 4.92 34500 161000 (2016) 11000 (1964) 43000 17500 22100 25300 27100 38300 49500 55200 76400 88700
2020-12-28 15:30 4.93 34500 161000 (2016) 11000 (1964) 43000 17500 22100 25300 27100 38300 49500 55200 76400 88700
2020-12-28 14:30 4.92 34500 161000 (2016) 11000 (1964) 43000 17500 22100 25300 27100 38300 49500 55200 76400 88700
2020-12-28 13:30 4.88 34300 161000 (2016) 11000 (1964) 43000 17500 22100 25300 27100 38300 49500 55200 76400 88700
2020-12-28 12:30 4.92 34500 161000 (2016) 11000 (1964) 43000 17500 22100 25300 27100 38300 49500 55200 76400 88700
2020-12-28 10:30 4.90 34400 161000 (2016) 11000 (1964) 43000 17500 22100 25300 27100 38300 49500 55200 76400 88700
2020-12-28 09:30 4.88 34300 161000 (2016) 11000 (1964) 43000 17500 22100 25300 27100 38300 49500 55200 76400 88700
2020-12-28 08:30 4.88 34300 161000 (2016) 11000 (1964) 43000 17500 22100 25300 27100 38300 49500 55200 76400 88700
2020-12-28 07:30 4.87 34300 161000 (2016) 11000 (1964) 43000 17500 22100 25300 27100 38300 49500 55200 76400 88700
2020-12-28 06:30 4.86 34200 161000 (2016) 11000 (1964) 43000 17500 22100 25300 27100 38300 49500 55200 76400 88700
2020-12-28 05:30 4.85 34200 161000 (2016) 11000 (1964) 43000 17500 22100 25300 27100 38300 49500 55200 76400 88700
2020-12-28 04:30 4.85 34200 161000 (2016) 11000 (1964) 43000 17500 22100 25300 27100 38300 49500 55200 76400 88700
2020-12-28 03:30 4.85 34200 161000 (2016) 11000 (1964) 43000 17500 22100 25300 27100 38300 49500 55200 76400 88700
2020-12-28 02:30 4.83 34100 161000 (2016) 11000 (1964) 43000 17500 22100 25300 27100 38300 49500 55200 76400 88700
2020-12-28 01:30 4.83 34100 161000 (2016) 11000 (1964) 43000 17500 22100 25300 27100 38300 49500 55200 76400 88700
2020-12-28 00:30 4.81 34000 161000 (2016) 11000 (1964) 43000 17500 22100 25300 27100 38300 49500 55200 76400 88700
2020-12-27 23:30 4.81 34000 145000 (2016) 9000 (1964) 42300 18300 22000 24700 28000 37700 48400 54600 77600 89400
2020-12-27 22:30 4.79 33900 145000 (2016) 9000 (1964) 42300 18300 22000 24700 28000 37700 48400 54600 77600 89400
2020-12-27 21:30 4.79 33900 145000 (2016) 9000 (1964) 42300 18300 22000 24700 28000 37700 48400 54600 77600 89400
2020-12-27 20:30 4.78 33900 145000 (2016) 9000 (1964) 42300 18300 22000 24700 28000 37700 48400 54600 77600 89400
2020-12-27 19:30 4.77 33800 145000 (2016) 9000 (1964) 42300 18300 22000 24700 28000 37700 48400 54600 77600 89400
2020-12-27 18:30 4.76 33800 145000 (2016) 9000 (1964) 42300 18300 22000 24700 28000 37700 48400 54600 77600 89400
2020-12-27 17:30 4.69 33500 145000 (2016) 9000 (1964) 42300 18300 22000 24700 28000 37700 48400 54600 77600 89400
2020-12-27 16:30 4.59 33100 145000 (2016) 9000 (1964) 42300 18300 22000 24700 28000 37700 48400 54600 77600 89400
2020-12-27 15:30 4.61 33200 145000 (2016) 9000 (1964) 42300 18300 22000 24700 28000 37700 48400 54600 77600 89400
2020-12-27 14:30 4.52 32800 145000 (2016) 9000 (1964) 42300 18300 22000 24700 28000 37700 48400 54600 77600 89400
2020-12-27 13:30 4.51 32800 145000 (2016) 9000 (1964) 42300 18300 22000 24700 28000 37700 48400 54600 77600 89400
2020-12-27 12:30 4.50 32700 145000 (2016) 9000 (1964) 42300 18300 22000 24700 28000 37700 48400 54600 77600 89400
2020-12-27 11:30 4.54 32900 145000 (2016) 9000 (1964) 42300 18300 22000 24700 28000 37700 48400 54600 77600 89400
2020-12-27 10:30 4.68 33500 145000 (2016) 9000 (1964) 42300 18300 22000 24700 28000 37700 48400 54600 77600 89400
2020-12-27 09:30 4.70 33600 145000 (2016) 9000 (1964) 42300 18300 22000 24700 28000 37700 48400 54600 77600 89400
2020-12-27 08:30 4.64 33300 145000 (2016) 9000 (1964) 42300 18300 22000 24700 28000 37700 48400 54600 77600 89400
2020-12-27 07:30 4.58 33000 145000 (2016) 9000 (1964) 42300 18300 22000 24700 28000 37700 48400 54600 77600 89400
2020-12-27 06:30 4.57 33000 145000 (2016) 9000 (1964) 42300 18300 22000 24700 28000 37700 48400 54600 77600 89400
2020-12-27 05:30 4.62 33200 145000 (2016) 9000 (1964) 42300 18300 22000 24700 28000 37700 48400 54600 77600 89400
2020-12-27 04:30 4.67 33400 145000 (2016) 9000 (1964) 42300 18300 22000 24700 28000 37700 48400 54600 77600 89400
2020-12-27 03:30 4.67 33400 145000 (2016) 9000 (1964) 42300 18300 22000 24700 28000 37700 48400 54600 77600 89400
2020-12-27 02:30 4.66 33400 145000 (2016) 9000 (1964) 42300 18300 22000 24700 28000 37700 48400 54600 77600 89400
2020-12-27 01:30 4.66 33400 145000 (2016) 9000 (1964) 42300 18300 22000 24700 28000 37700 48400 54600 77600 89400
2020-12-27 00:30 4.61 33200 145000 (2016) 9000 (1964) 42300 18300 22000 24700 28000 37700 48400 54600 77600 89400
2020-12-26 23:30 4.64 33300 118000 (2016) 7000 (1964) 42000 15300 22200 24500 27900 39000 47800 57200 76600 94000
2020-12-26 22:30 4.58 33000 118000 (2016) 7000 (1964) 42000 15300 22200 24500 27900 39000 47800 57200 76600 94000
2020-12-26 21:30 4.64 33300 118000 (2016) 7000 (1964) 42000 15300 22200 24500 27900 39000 47800 57200 76600 94000
2020-12-26 20:30 4.64 33300 118000 (2016) 7000 (1964) 42000 15300 22200 24500 27900 39000 47800 57200 76600 94000
2020-12-26 19:30 4.64 33300 118000 (2016) 7000 (1964) 42000 15300 22200 24500 27900 39000 47800 57200 76600 94000
2020-12-26 18:30 4.64 33300 118000 (2016) 7000 (1964) 42000 15300 22200 24500 27900 39000 47800 57200 76600 94000
2020-12-26 17:30 4.63 33300 118000 (2016) 7000 (1964) 42000 15300 22200 24500 27900 39000 47800 57200 76600 94000
2020-12-26 16:30 4.57 33000 118000 (2016) 7000 (1964) 42000 15300 22200 24500 27900 39000 47800 57200 76600 94000
2020-12-26 15:30 4.61 33200 118000 (2016) 7000 (1964) 42000 15300 22200 24500 27900 39000 47800 57200 76600 94000
2020-12-26 14:30 4.61 33200 118000 (2016) 7000 (1964) 42000 15300 22200 24500 27900 39000 47800 57200 76600 94000
2020-12-26 13:30 4.55 32900 118000 (2016) 7000 (1964) 42000 15300 22200 24500 27900 39000 47800 57200 76600 94000
2020-12-26 12:30 4.62 33200 118000 (2016) 7000 (1964) 42000 15300 22200 24500 27900 39000 47800 57200 76600 94000
2020-12-26 11:30 4.62 33200 118000 (2016) 7000 (1964) 42000 15300 22200 24500 27900 39000 47800 57200 76600 94000
2020-12-26 10:30 4.61 33200 118000 (2016) 7000 (1964) 42000 15300 22200 24500 27900 39000 47800 57200 76600 94000
2020-12-26 09:30 4.60 33100 118000 (2016) 7000 (1964) 42000 15300 22200 24500 27900 39000 47800 57200 76600 94000
2020-12-26 08:30 4.60 33100 118000 (2016) 7000 (1964) 42000 15300 22200 24500 27900 39000 47800 57200 76600 94000
2020-12-26 07:30 4.57 33000 118000 (2016) 7000 (1964) 42000 15300 22200 24500 27900 39000 47800 57200 76600 94000
2020-12-26 06:30 4.60 33100 118000 (2016) 7000 (1964) 42000 15300 22200 24500 27900 39000 47800 57200 76600 94000
2020-12-26 05:30 4.60 33100 118000 (2016) 7000 (1964) 42000 15300 22200 24500 27900 39000 47800 57200 76600 94000
2020-12-26 04:30 4.59 33100 118000 (2016) 7000 (1964) 42000 15300 22200 24500 27900 39000 47800 57200 76600 94000
2020-12-26 03:30 4.58 33000 118000 (2016) 7000 (1964) 42000 15300 22200 24500 27900 39000 47800 57200 76600 94000
2020-12-26 02:30 4.59 33100 118000 (2016) 7000 (1964) 42000 15300 22200 24500 27900 39000 47800 57200 76600 94000
2020-12-26 01:30 4.58 33000 118000 (2016) 7000 (1964) 42000 15300 22200 24500 27900 39000 47800 57200 76600 94000
2020-12-26 00:30 4.59 33100 118000 (2016) 7000 (1964) 42000 15300 22200 24500 27900 39000 47800 57200 76600 94000
2020-12-25 23:30 4.60 33100 104000 (2016) 6500 (1964) 41100 15000 21900 26700 27300 36900 48400 58800 74200 79800
2020-12-25 22:30 4.58 33000 104000 (2016) 6500 (1964) 41100 15000 21900 26700 27300 36900 48400 58800 74200 79800
2020-12-25 21:30 4.58 33000 104000 (2016) 6500 (1964) 41100 15000 21900 26700 27300 36900 48400 58800 74200 79800
2020-12-25 20:30 4.59 33100 104000 (2016) 6500 (1964) 41100 15000 21900 26700 27300 36900 48400 58800 74200 79800
2020-12-25 19:30 4.58 33000 104000 (2016) 6500 (1964) 41100 15000 21900 26700 27300 36900 48400 58800 74200 79800
2020-12-25 18:30 4.58 33000 104000 (2016) 6500 (1964) 41100 15000 21900 26700 27300 36900 48400 58800 74200 79800
2020-12-25 17:30 4.57 33000 104000 (2016) 6500 (1964) 41100 15000 21900 26700 27300 36900 48400 58800 74200 79800
2020-12-25 16:30 4.58 33000 104000 (2016) 6500 (1964) 41100 15000 21900 26700 27300 36900 48400 58800 74200 79800
2020-12-25 15:30 4.58 33000 104000 (2016) 6500 (1964) 41100 15000 21900 26700 27300 36900 48400 58800 74200 79800
2020-12-25 14:30 4.43 32400 104000 (2016) 6500 (1964) 41100 15000 21900 26700 27300 36900 48400 58800 74200 79800
2020-12-25 13:30 4.50 32700 104000 (2016) 6500 (1964) 41100 15000 21900 26700 27300 36900 48400 58800 74200 79800
2020-12-25 12:30 4.56 33000 104000 (2016) 6500 (1964) 41100 15000 21900 26700 27300 36900 48400 58800 74200 79800
2020-12-25 11:30 4.50 32700 104000 (2016) 6500 (1964) 41100 15000 21900 26700 27300 36900 48400 58800 74200 79800
2020-12-25 10:30 4.43 32400 104000 (2016) 6500 (1964) 41100 15000 21900 26700 27300 36900 48400 58800 74200 79800
2020-12-25 09:30 4.49 32700 104000 (2016) 6500 (1964) 41100 15000 21900 26700 27300 36900 48400 58800 74200 79800
2020-12-25 08:30 4.58 33000 104000 (2016) 6500 (1964) 41100 15000 21900 26700 27300 36900 48400 58800 74200 79800
2020-12-25 07:30 4.60 33100 104000 (2016) 6500 (1964) 41100 15000 21900 26700 27300 36900 48400 58800 74200 79800
2020-12-25 06:30 4.60 33100 104000 (2016) 6500 (1964) 41100 15000 21900 26700 27300 36900 48400 58800 74200 79800
2020-12-25 05:30 4.61 33200 104000 (2016) 6500 (1964) 41100 15000 21900 26700 27300 36900 48400 58800 74200 79800
2020-12-25 04:30 4.61 33200 104000 (2016) 6500 (1964) 41100 15000 21900 26700 27300 36900 48400 58800 74200 79800
2020-12-25 03:30 4.61 33200 104000 (2016) 6500 (1964) 41100 15000 21900 26700 27300 36900 48400 58800 74200 79800
2020-12-25 02:30 4.59 33100 104000 (2016) 6500 (1964) 41100 15000 21900 26700 27300 36900 48400 58800 74200 79800
2020-12-25 01:30 4.61 33200 104000 (2016) 6500 (1964) 41100 15000 21900 26700 27300 36900 48400 58800 74200 79800
2020-12-25 00:30 4.62 33200 104000 (2016) 6500 (1964) 41100 15000 21900 26700 27300 36900 48400 58800 74200 79800
2020-12-24 23:30 4.62 33200 109000 (2016) 6000 (1964) 40700 15500 20900 26800 27800 37200 47600 55000 73500 76700
2020-12-24 22:30 4.62 33200 109000 (2016) 6000 (1964) 40700 15500 20900 26800 27800 37200 47600 55000 73500 76700
2020-12-24 21:30 4.62 33200 109000 (2016) 6000 (1964) 40700 15500 20900 26800 27800 37200 47600 55000 73500 76700
2020-12-24 20:30 4.60 33100 109000 (2016) 6000 (1964) 40700 15500 20900 26800 27800 37200 47600 55000 73500 76700
2020-12-24 19:30 4.60 33100 109000 (2016) 6000 (1964) 40700 15500 20900 26800 27800 37200 47600 55000 73500 76700
2020-12-24 18:30 4.63 33300 109000 (2016) 6000 (1964) 40700 15500 20900 26800 27800 37200 47600 55000 73500 76700
2020-12-24 17:30 4.62 33200 109000 (2016) 6000 (1964) 40700 15500 20900 26800 27800 37200 47600 55000 73500 76700
2020-12-24 16:30 4.58 33000 109000 (2016) 6000 (1964) 40700 15500 20900 26800 27800 37200 47600 55000 73500 76700
2020-12-24 15:30 4.60 33100 109000 (2016) 6000 (1964) 40700 15500 20900 26800 27800 37200 47600 55000 73500 76700
2020-12-24 14:30 4.46 32600 109000 (2016) 6000 (1964) 40700 15500 20900 26800 27800 37200 47600 55000 73500 76700
2020-12-24 13:30 4.48 32600 109000 (2016) 6000 (1964) 40700 15500 20900 26800 27800 37200 47600 55000 73500 76700
2020-12-24 12:30 4.51 32800 109000 (2016) 6000 (1964) 40700 15500 20900 26800 27800 37200 47600 55000 73500 76700
2020-12-24 11:30 4.50 32700 109000 (2016) 6000 (1964) 40700 15500 20900 26800 27800 37200 47600 55000 73500 76700
2020-12-24 10:30 4.45 32500 109000 (2016) 6000 (1964) 40700 15500 20900 26800 27800 37200 47600 55000 73500 76700
2020-12-24 09:30 4.52 32800 109000 (2016) 6000 (1964) 40700 15500 20900 26800 27800 37200 47600 55000 73500 76700
2020-12-24 08:30 4.50 32700 109000 (2016) 6000 (1964) 40700 15500 20900 26800 27800 37200 47600 55000 73500 76700
2020-12-24 07:30 4.49 32700 109000 (2016) 6000 (1964) 40700 15500 20900 26800 27800 37200 47600 55000 73500 76700
2020-12-24 06:30 4.59 33100 109000 (2016) 6000 (1964) 40700 15500 20900 26800 27800 37200 47600 55000 73500 76700
2020-12-24 05:30 4.50 32700 109000 (2016) 6000 (1964) 40700 15500 20900 26800 27800 37200 47600 55000 73500 76700
2020-12-24 04:30 4.57 33000 109000 (2016) 6000 (1964) 40700 15500 20900 26800 27800 37200 47600 55000 73500 76700
2020-12-24 03:30 4.50 32700 109000 (2016) 6000 (1964) 40700 15500 20900 26800 27800 37200 47600 55000 73500 76700
2020-12-24 02:30 4.48 32600 109000 (2016) 6000 (1964) 40700 15500 20900 26800 27800 37200 47600 55000 73500 76700
2020-12-24 01:30 4.50 32700 109000 (2016) 6000 (1964) 40700 15500 20900 26800 27800 37200 47600 55000 73500 76700
2020-12-24 00:30 4.49 32700 109000 (2016) 6000 (1964) 40700 15500 20900 26800 27800 37200 47600 55000 73500 76700
2020-12-23 23:30 4.51 32800 113000 (2016) 5500 (1964) 41400 15800 20900 26800 29100 35900 47300 53000 75900 81900
2020-12-23 22:30 4.42 32400 113000 (2016) 5500 (1964) 41400 15800 20900 26800 29100 35900 47300 53000 75900 81900
2020-12-23 21:30 4.44 32500 113000 (2016) 5500 (1964) 41400 15800 20900 26800 29100 35900 47300 53000 75900 81900
2020-12-23 20:30 4.48 32600 113000 (2016) 5500 (1964) 41400 15800 20900 26800 29100 35900 47300 53000 75900 81900
2020-12-23 19:30 4.47 32600 113000 (2016) 5500 (1964) 41400 15800 20900 26800 29100 35900 47300 53000 75900 81900
2020-12-23 18:30 4.45 32500 113000 (2016) 5500 (1964) 41400 15800 20900 26800 29100 35900 47300 53000 75900 81900
2020-12-23 17:30 4.48 32600 113000 (2016) 5500 (1964) 41400 15800 20900 26800 29100 35900 47300 53000 75900 81900
2020-12-23 16:30 4.43 32400 113000 (2016) 5500 (1964) 41400 15800 20900 26800 29100 35900 47300 53000 75900 81900
2020-12-23 15:30 4.45 32500 113000 (2016) 5500 (1964) 41400 15800 20900 26800 29100 35900 47300 53000 75900 81900
2020-12-23 14:30 4.45 32500 113000 (2016) 5500 (1964) 41400 15800 20900 26800 29100 35900 47300 53000 75900 81900
2020-12-23 13:30 4.43 32400 113000 (2016) 5500 (1964) 41400 15800 20900 26800 29100 35900 47300 53000 75900 81900
2020-12-23 12:30 4.45 32500 113000 (2016) 5500 (1964) 41400 15800 20900 26800 29100 35900 47300 53000 75900 81900
2020-12-23 11:30 4.42 32400 113000 (2016) 5500 (1964) 41400 15800 20900 26800 29100 35900 47300 53000 75900 81900
2020-12-23 10:30 4.43 32400 113000 (2016) 5500 (1964) 41400 15800 20900 26800 29100 35900 47300 53000 75900 81900
2020-12-23 09:30 4.53 32800 113000 (2016) 5500 (1964) 41400 15800 20900 26800 29100 35900 47300 53000 75900 81900
2020-12-23 08:30 4.51 32800 113000 (2016) 5500 (1964) 41400 15800 20900 26800 29100 35900 47300 53000 75900 81900
2020-12-23 07:30 4.54 32900 113000 (2016) 5500 (1964) 41400 15800 20900 26800 29100 35900 47300 53000 75900 81900
2020-12-23 06:30 4.55 32900 113000 (2016) 5500 (1964) 41400 15800 20900 26800 29100 35900 47300 53000 75900 81900
2020-12-23 05:30 4.56 33000 113000 (2016) 5500 (1964) 41400 15800 20900 26800 29100 35900 47300 53000 75900 81900
2020-12-23 04:30 4.52 32800 113000 (2016) 5500 (1964) 41400 15800 20900 26800 29100 35900 47300 53000 75900 81900
2020-12-23 03:30 4.54 32900 113000 (2016) 5500 (1964) 41400 15800 20900 26800 29100 35900 47300 53000 75900 81900
2020-12-23 02:30 4.51 32800 113000 (2016) 5500 (1964) 41400 15800 20900 26800 29100 35900 47300 53000 75900 81900
2020-12-23 01:30 4.61 33200 113000 (2016) 5500 (1964) 41400 15800 20900 26800 29100 35900 47300 53000 75900 81900
2020-12-23 00:30 4.58 33000 113000 (2016) 5500 (1964) 41400 15800 20900 26800 29100 35900 47300 53000 75900 81900
2020-12-22 23:30 4.55 32900 114000 (2016) 5000 (1964) 42700 14100 21000 26200 28100 37700 48400 54000 79000 95100
2020-12-22 22:30 4.56 33000 114000 (2016) 5000 (1964) 42700 14100 21000 26200 28100 37700 48400 54000 79000 95100
2020-12-22 21:30 4.52 32800 114000 (2016) 5000 (1964) 42700 14100 21000 26200 28100 37700 48400 54000 79000 95100
2020-12-22 20:30 4.52 32800 114000 (2016) 5000 (1964) 42700 14100 21000 26200 28100 37700 48400 54000 79000 95100
2020-12-22 19:30 4.61 33200 114000 (2016) 5000 (1964) 42700 14100 21000 26200 28100 37700 48400 54000 79000 95100
2020-12-22 18:30 4.55 32900 114000 (2016) 5000 (1964) 42700 14100 21000 26200 28100 37700 48400 54000 79000 95100
2020-12-22 17:30 4.55 32900 114000 (2016) 5000 (1964) 42700 14100 21000 26200 28100 37700 48400 54000 79000 95100
2020-12-22 16:30 4.65 33300 114000 (2016) 5000 (1964) 42700 14100 21000 26200 28100 37700 48400 54000 79000 95100
2020-12-22 15:30 4.61 33200 114000 (2016) 5000 (1964) 42700 14100 21000 26200 28100 37700 48400 54000 79000 95100
2020-12-22 14:30 4.52 32800 114000 (2016) 5000 (1964) 42700 14100 21000 26200 28100 37700 48400 54000 79000 95100
2020-12-22 13:30 4.53 32800 114000 (2016) 5000 (1964) 42700 14100 21000 26200 28100 37700 48400 54000 79000 95100
2020-12-22 12:30 4.60 33100 114000 (2016) 5000 (1964) 42700 14100 21000 26200 28100 37700 48400 54000 79000 95100
2020-12-22 11:30 4.73 33700 114000 (2016) 5000 (1964) 42700 14100 21000 26200 28100 37700 48400 54000 79000 95100
2020-12-22 10:30 4.64 33300 114000 (2016) 5000 (1964) 42700 14100 21000 26200 28100 37700 48400 54000 79000 95100
2020-12-22 09:30 4.74 33700 114000 (2016) 5000 (1964) 42700 14100 21000 26200 28100 37700 48400 54000 79000 95100
2020-12-22 08:30 4.75 33800 114000 (2016) 5000 (1964) 42700 14100 21000 26200 28100 37700 48400 54000 79000 95100
2020-12-22 07:30 4.75 33800 114000 (2016) 5000 (1964) 42700 14100 21000 26200 28100 37700 48400 54000 79000 95100
2020-12-22 06:30 4.76 33800 114000 (2016) 5000 (1964) 42700 14100 21000 26200 28100 37700 48400 54000 79000 95100
2020-12-22 05:30 4.70 33600 114000 (2016) 5000 (1964) 42700 14100 21000 26200 28100 37700 48400 54000 79000 95100
2020-12-22 04:30 4.77 33800 114000 (2016) 5000 (1964) 42700 14100 21000 26200 28100 37700 48400 54000 79000 95100
2020-12-22 03:30 4.77 33800 114000 (2016) 5000 (1964) 42700 14100 21000 26200 28100 37700 48400 54000 79000 95100
2020-12-22 02:30 4.76 33800 114000 (2016) 5000 (1964) 42700 14100 21000 26200 28100 37700 48400 54000 79000 95100
2020-12-22 01:30 4.78 33900 114000 (2016) 5000 (1964) 42700 14100 21000 26200 28100 37700 48400 54000 79000 95100
2020-12-22 00:30 4.78 33900 114000 (2016) 5000 (1964) 42700 14100 21000 26200 28100 37700 48400 54000 79000 95100
2020-12-21 23:30 4.79 33900 131000 (1993) 5000 (1964) 44000 16700 21200 26800 28600 37600 49100 57400 80800 116000
2020-12-21 22:30 4.79 33900 131000 (1993) 5000 (1964) 44000 16700 21200 26800 28600 37600 49100 57400 80800 116000
2020-12-21 21:30 4.80 34000 131000 (1993) 5000 (1964) 44000 16700 21200 26800 28600 37600 49100 57400 80800 116000
2020-12-21 20:30 4.79 33900 131000 (1993) 5000 (1964) 44000 16700 21200 26800 28600 37600 49100 57400 80800 116000
2020-12-21 19:30 4.79 33900 131000 (1993) 5000 (1964) 44000 16700 21200 26800 28600 37600 49100 57400 80800 116000
2020-12-21 18:30 4.80 34000 131000 (1993) 5000 (1964) 44000 16700 21200 26800 28600 37600 49100 57400 80800 116000
2020-12-21 17:30 4.80 34000 131000 (1993) 5000 (1964) 44000 16700 21200 26800 28600 37600 49100 57400 80800 116000
2020-12-21 16:30 4.80 34000 131000 (1993) 5000 (1964) 44000 16700 21200 26800 28600 37600 49100 57400 80800 116000
2020-12-21 15:30 4.65 33300 131000 (1993) 5000 (1964) 44000 16700 21200 26800 28600 37600 49100 57400 80800 116000
2020-12-21 14:30 4.68 33500 131000 (1993) 5000 (1964) 44000 16700 21200 26800 28600 37600 49100 57400 80800 116000
2020-12-21 13:30 4.63 33300 131000 (1993) 5000 (1964) 44000 16700 21200 26800 28600 37600 49100 57400 80800 116000
2020-12-21 12:30 4.64 33300 131000 (1993) 5000 (1964) 44000 16700 21200 26800 28600 37600 49100 57400 80800 116000
2020-12-21 11:30 4.65 33300 131000 (1993) 5000 (1964) 44000 16700 21200 26800 28600 37600 49100 57400 80800 116000
2020-12-21 10:30 4.69 33500 131000 (1993) 5000 (1964) 44000 16700 21200 26800 28600 37600 49100 57400 80800 116000
2020-12-21 09:30 4.69 33500 131000 (1993) 5000 (1964) 44000 16700 21200 26800 28600 37600 49100 57400 80800 116000
2020-12-21 08:30 4.72 33600 131000 (1993) 5000 (1964) 44000 16700 21200 26800 28600 37600 49100 57400 80800 116000
2020-12-21 07:30 4.75 33800 131000 (1993) 5000 (1964) 44000 16700 21200 26800 28600 37600 49100 57400 80800 116000
2020-12-21 06:30 4.83 34100 131000 (1993) 5000 (1964) 44000 16700 21200 26800 28600 37600 49100 57400 80800 116000
2020-12-21 05:30 4.76 33800 131000 (1993) 5000 (1964) 44000 16700 21200 26800 28600 37600 49100 57400 80800 116000
2020-12-21 04:30 4.73 33700 131000 (1993) 5000 (1964) 44000 16700 21200 26800 28600 37600 49100 57400 80800 116000
2020-12-21 03:30 4.75 33800 131000 (1993) 5000 (1964) 44000 16700 21200 26800 28600 37600 49100 57400 80800 116000
2020-12-21 02:30 4.87 34300 131000 (1993) 5000 (1964) 44000 16700 21200 26800 28600 37600 49100 57400 80800 116000
2020-12-21 01:30 4.75 33800 131000 (1993) 5000 (1964) 44000 16700 21200 26800 28600 37600 49100 57400 80800 116000
2020-12-21 00:30 4.89 34400 131000 (1993) 5000 (1964) 44000 16700 21200 26800 28600 37600 49100 57400 80800 116000
2020-12-20 23:30 4.89 34400 163000 (2016) 5500 (1964) 44200 17800 20400 24400 27000 38900 52600 60500 78400 85100
2020-12-20 22:30 4.91 34400 163000 (2016) 5500 (1964) 44200 17800 20400 24400 27000 38900 52600 60500 78400 85100
2020-12-20 21:30 4.91 34400 163000 (2016) 5500 (1964) 44200 17800 20400 24400 27000 38900 52600 60500 78400 85100
2020-12-20 20:30 4.93 34500 163000 (2016) 5500 (1964) 44200 17800 20400 24400 27000 38900 52600 60500 78400 85100
2020-12-20 19:30 4.92 34500 163000 (2016) 5500 (1964) 44200 17800 20400 24400 27000 38900 52600 60500 78400 85100
2020-12-20 18:30 4.93 34500 163000 (2016) 5500 (1964) 44200 17800 20400 24400 27000 38900 52600 60500 78400 85100
2020-12-20 17:30 4.92 34500 163000 (2016) 5500 (1964) 44200 17800 20400 24400 27000 38900 52600 60500 78400 85100
2020-12-20 16:30 4.92 34500 163000 (2016) 5500 (1964) 44200 17800 20400 24400 27000 38900 52600 60500 78400 85100
2020-12-20 15:30 4.92 34500 163000 (2016) 5500 (1964) 44200 17800 20400 24400 27000 38900 52600 60500 78400 85100
2020-12-20 14:30 4.80 34000 163000 (2016) 5500 (1964) 44200 17800 20400 24400 27000 38900 52600 60500 78400 85100
2020-12-20 13:30 4.96 34700 163000 (2016) 5500 (1964) 44200 17800 20400 24400 27000 38900 52600 60500 78400 85100
2020-12-20 12:30 4.96 34700 163000 (2016) 5500 (1964) 44200 17800 20400 24400 27000 38900 52600 60500 78400 85100
2020-12-20 11:30 4.85 34200 163000 (2016) 5500 (1964) 44200 17800 20400 24400 27000 38900 52600 60500 78400 85100
2020-12-20 10:30 4.97 34700 163000 (2016) 5500 (1964) 44200 17800 20400 24400 27000 38900 52600 60500 78400 85100
2020-12-20 09:30 4.98 34800 163000 (2016) 5500 (1964) 44200 17800 20400 24400 27000 38900 52600 60500 78400 85100
2020-12-20 08:30 4.98 34800 163000 (2016) 5500 (1964) 44200 17800 20400 24400 27000 38900 52600 60500 78400 85100
2020-12-20 07:30 4.99 34800 163000 (2016) 5500 (1964) 44200 17800 20400 24400 27000 38900 52600 60500 78400 85100
2020-12-20 06:30 4.94 34600 163000 (2016) 5500 (1964) 44200 17800 20400 24400 27000 38900 52600 60500 78400 85100
2020-12-20 05:30 4.99 34800 163000 (2016) 5500 (1964) 44200 17800 20400 24400 27000 38900 52600 60500 78400 85100
2020-12-20 04:30 4.99 34800 163000 (2016) 5500 (1964) 44200 17800 20400 24400 27000 38900 52600 60500 78400 85100
2020-12-20 03:30 4.98 34800 163000 (2016) 5500 (1964) 44200 17800 20400 24400 27000 38900 52600 60500 78400 85100
2020-12-20 02:30 5.00 34800 163000 (2016) 5500 (1964) 44200 17800 20400 24400 27000 38900 52600 60500 78400 85100
2020-12-20 01:30 5.00 34800 163000 (2016) 5500 (1964) 44200 17800 20400 24400 27000 38900 52600 60500 78400 85100
2020-12-20 00:30 5.00 34800 163000 (2016) 5500 (1964) 44200 17800 20400 24400 27000 38900 52600 60500 78400 85100

A total of 735 rows are displayed for years 1958 through 2020.